<?xml version='1.0' encoding='UTF-8'?>
<gpx version="1.1" creator="https://www.komoot.de" xmlns="http://www.topografix.com/GPX/1/1" xmlns:xsi="http://www.w3.org/2001/XMLSchema-instance" xsi:schemaLocation="http://www.topografix.com/GPX/1/1 http://www.topografix.com/GPX/1/1/gpx.xsd">
  <metadata>
    <name>DNF - Mezos - Tosse</name>
    <author>
      <link href="https://www.komoot.de">
        <text>komoot</text>
        <type>text/html</type>
      </link>
    </author>
  </metadata>
  <trk>
    <name>DNF - Mezos - Tosse</name>
    <trkseg>
      <trkpt lat="44.075302" lon="-1.167170">
        <ele>20.056010</ele>
        <time>2026-03-26T21:14:28.599Z</time>
      </trkpt>
      <trkpt lat="44.074408" lon="-1.167521">
        <ele>20.038215</ele>
        <time>2026-03-26T21:14:39.513Z</time>
      </trkpt>
      <trkpt lat="44.074060" lon="-1.167658">
        <ele>19.820520</ele>
        <time>2026-03-26T21:14:43.685Z</time>
      </trkpt>
      <trkpt lat="44.073862" lon="-1.167763">
        <ele>19.692977</ele>
        <time>2026-03-26T21:14:46.180Z</time>
      </trkpt>
      <trkpt lat="44.073687" lon="-1.167938">
        <ele>19.563267</ele>
        <time>2026-03-26T21:14:48.757Z</time>
      </trkpt>
      <trkpt lat="44.072768" lon="-1.169588">
        <ele>19.385318</ele>
        <time>2026-03-26T21:15:10.700Z</time>
      </trkpt>
      <trkpt lat="44.072679" lon="-1.169751">
        <ele>19.501885</ele>
        <time>2026-03-26T21:15:13.448Z</time>
      </trkpt>
      <trkpt lat="44.072591" lon="-1.169914">
        <ele>19.617973</ele>
        <time>2026-03-26T21:15:16.241Z</time>
      </trkpt>
      <trkpt lat="44.072577" lon="-1.169940">
        <ele>19.636473</ele>
        <time>2026-03-26T21:15:16.689Z</time>
      </trkpt>
      <trkpt lat="44.072424" lon="-1.170219">
        <ele>19.836313</ele>
        <time>2026-03-26T21:15:21.609Z</time>
      </trkpt>
      <trkpt lat="44.072261" lon="-1.170477">
        <ele>20.031928</ele>
        <time>2026-03-26T21:15:26.563Z</time>
      </trkpt>
      <trkpt lat="44.072084" lon="-1.170680">
        <ele>20.213683</ele>
        <time>2026-03-26T21:15:31.229Z</time>
      </trkpt>
      <trkpt lat="44.071287" lon="-1.171310">
        <ele>21.166790</ele>
        <time>2026-03-26T21:15:48.934Z</time>
      </trkpt>
      <trkpt lat="44.070854" lon="-1.171660">
        <ele>21.729819</ele>
        <time>2026-03-26T21:15:58.131Z</time>
      </trkpt>
      <trkpt lat="44.070734" lon="-1.171793">
        <ele>21.902305</ele>
        <time>2026-03-26T21:16:00.996Z</time>
      </trkpt>
      <trkpt lat="44.070580" lon="-1.172060">
        <ele>22.178916</ele>
        <time>2026-03-26T21:16:05.621Z</time>
      </trkpt>
      <trkpt lat="44.068991" lon="-1.179459">
        <ele>30.470660</ele>
        <time>2026-03-26T21:18:02.526Z</time>
      </trkpt>
      <trkpt lat="44.068879" lon="-1.179850">
        <ele>30.516635</ele>
        <time>2026-03-26T21:18:08.115Z</time>
      </trkpt>
      <trkpt lat="44.068809" lon="-1.179989">
        <ele>30.494107</ele>
        <time>2026-03-26T21:18:10.262Z</time>
      </trkpt>
      <trkpt lat="44.068529" lon="-1.180210">
        <ele>30.434651</ele>
        <time>2026-03-26T21:18:15.616Z</time>
      </trkpt>
      <trkpt lat="44.066245" lon="-1.181711">
        <ele>28.223478</ele>
        <time>2026-03-26T21:18:47.026Z</time>
      </trkpt>
      <trkpt lat="44.065746" lon="-1.182031">
        <ele>27.444129</ele>
        <time>2026-03-26T21:18:52.715Z</time>
      </trkpt>
      <trkpt lat="44.065562" lon="-1.182116">
        <ele>27.170525</ele>
        <time>2026-03-26T21:18:54.690Z</time>
      </trkpt>
      <trkpt lat="44.065267" lon="-1.182188">
        <ele>26.747849</ele>
        <time>2026-03-26T21:18:57.708Z</time>
      </trkpt>
      <trkpt lat="44.064951" lon="-1.182143">
        <ele>26.299562</ele>
        <time>2026-03-26T21:19:00.896Z</time>
      </trkpt>
      <trkpt lat="44.064000" lon="-1.181606">
        <ele>25.638067</ele>
        <time>2026-03-26T21:19:16.075Z</time>
      </trkpt>
      <trkpt lat="44.063903" lon="-1.181556">
        <ele>25.898854</ele>
        <time>2026-03-26T21:19:18.720Z</time>
      </trkpt>
      <trkpt lat="44.063402" lon="-1.181224">
        <ele>27.297838</ele>
        <time>2026-03-26T21:19:34.278Z</time>
      </trkpt>
      <trkpt lat="44.063144" lon="-1.181096">
        <ele>27.988392</ele>
        <time>2026-03-26T21:19:42.507Z</time>
      </trkpt>
      <trkpt lat="44.062890" lon="-1.181050">
        <ele>28.634163</ele>
        <time>2026-03-26T21:19:50.487Z</time>
      </trkpt>
      <trkpt lat="44.062705" lon="-1.181108">
        <ele>29.112264</ele>
        <time>2026-03-26T21:19:56.117Z</time>
      </trkpt>
      <trkpt lat="44.062566" lon="-1.181200">
        <ele>29.500320</ele>
        <time>2026-03-26T21:20:00.227Z</time>
      </trkpt>
      <trkpt lat="44.062355" lon="-1.181424">
        <ele>29.762008</ele>
        <time>2026-03-26T21:20:06.329Z</time>
      </trkpt>
      <trkpt lat="44.061387" lon="-1.182308">
        <ele>30.308252</ele>
        <time>2026-03-26T21:20:24.628Z</time>
      </trkpt>
      <trkpt lat="44.060172" lon="-1.183519">
        <ele>29.619907</ele>
        <time>2026-03-26T21:20:43.682Z</time>
      </trkpt>
      <trkpt lat="44.059087" lon="-1.184583">
        <ele>28.743652</ele>
        <time>2026-03-26T21:20:59.656Z</time>
      </trkpt>
      <trkpt lat="44.057917" lon="-1.185728">
        <ele>28.258373</ele>
        <time>2026-03-26T21:21:20.330Z</time>
      </trkpt>
      <trkpt lat="44.055148" lon="-1.188127">
        <ele>28.590857</ele>
        <time>2026-03-26T21:22:10.443Z</time>
      </trkpt>
      <trkpt lat="44.054173" lon="-1.188910">
        <ele>28.671745</ele>
        <time>2026-03-26T21:22:27.567Z</time>
      </trkpt>
      <trkpt lat="44.053771" lon="-1.189194">
        <ele>28.701644</ele>
        <time>2026-03-26T21:22:34.234Z</time>
      </trkpt>
      <trkpt lat="44.052200" lon="-1.190225">
        <ele>29.082951</ele>
        <time>2026-03-26T21:23:00.136Z</time>
      </trkpt>
      <trkpt lat="44.050244" lon="-1.191561">
        <ele>30.565228</ele>
        <time>2026-03-26T21:23:39.628Z</time>
      </trkpt>
      <trkpt lat="44.049933" lon="-1.191723">
        <ele>30.800192</ele>
        <time>2026-03-26T21:23:45.590Z</time>
      </trkpt>
      <trkpt lat="44.049571" lon="-1.191857">
        <ele>31.063027</ele>
        <time>2026-03-26T21:23:52.255Z</time>
      </trkpt>
      <trkpt lat="44.049261" lon="-1.191934">
        <ele>31.283978</ele>
        <time>2026-03-26T21:23:57.817Z</time>
      </trkpt>
      <trkpt lat="44.047809" lon="-1.192058">
        <ele>32.164439</ele>
        <time>2026-03-26T21:24:23.040Z</time>
      </trkpt>
      <trkpt lat="44.047081" lon="-1.192149">
        <ele>32.519999</ele>
        <time>2026-03-26T21:24:35.276Z</time>
      </trkpt>
      <trkpt lat="44.046551" lon="-1.192304">
        <ele>32.698169</ele>
        <time>2026-03-26T21:24:44.065Z</time>
      </trkpt>
      <trkpt lat="44.046211" lon="-1.192484">
        <ele>32.628133</ele>
        <time>2026-03-26T21:24:49.927Z</time>
      </trkpt>
      <trkpt lat="44.045875" lon="-1.192752">
        <ele>32.553569</ele>
        <time>2026-03-26T21:24:55.800Z</time>
      </trkpt>
      <trkpt lat="44.045325" lon="-1.193304">
        <ele>32.423006</ele>
        <time>2026-03-26T21:25:05.070Z</time>
      </trkpt>
      <trkpt lat="44.044290" lon="-1.194432">
        <ele>31.355345</ele>
        <time>2026-03-26T21:25:21.092Z</time>
      </trkpt>
      <trkpt lat="44.042105" lon="-1.196780">
        <ele>28.721764</ele>
        <time>2026-03-26T21:25:54.822Z</time>
      </trkpt>
      <trkpt lat="44.041356" lon="-1.197584">
        <ele>28.117458</ele>
        <time>2026-03-26T21:26:06.868Z</time>
      </trkpt>
      <trkpt lat="44.039005" lon="-1.200122">
        <ele>27.238832</ele>
        <time>2026-03-26T21:26:47.912Z</time>
      </trkpt>
      <trkpt lat="44.038247" lon="-1.199517">
        <ele>27.332525</ele>
        <time>2026-03-26T21:27:00.899Z</time>
      </trkpt>
      <trkpt lat="44.035868" lon="-1.197594">
        <ele>28.874541</ele>
        <time>2026-03-26T21:27:50.733Z</time>
      </trkpt>
      <trkpt lat="44.035416" lon="-1.197164">
        <ele>28.938325</ele>
        <time>2026-03-26T21:28:00.620Z</time>
      </trkpt>
      <trkpt lat="44.035161" lon="-1.196835">
        <ele>28.978837</ele>
        <time>2026-03-26T21:28:05.376Z</time>
      </trkpt>
      <trkpt lat="44.034846" lon="-1.197106">
        <ele>28.947760</ele>
        <time>2026-03-26T21:28:09.884Z</time>
      </trkpt>
      <trkpt lat="44.034434" lon="-1.197296">
        <ele>28.407890</ele>
        <time>2026-03-26T21:28:14.704Z</time>
      </trkpt>
      <trkpt lat="44.034333" lon="-1.197471">
        <ele>28.207222</ele>
        <time>2026-03-26T21:28:16.483Z</time>
      </trkpt>
      <trkpt lat="44.034028" lon="-1.198332">
        <ele>27.348937</ele>
        <time>2026-03-26T21:28:24.174Z</time>
      </trkpt>
      <trkpt lat="44.033092" lon="-1.200246">
        <ele>26.194189</ele>
        <time>2026-03-26T21:28:47.510Z</time>
      </trkpt>
      <trkpt lat="44.033001" lon="-1.200402">
        <ele>26.124189</ele>
        <time>2026-03-26T21:28:49.364Z</time>
      </trkpt>
      <trkpt lat="44.032929" lon="-1.200448">
        <ele>26.085787</ele>
        <time>2026-03-26T21:28:50.356Z</time>
      </trkpt>
      <trkpt lat="44.033023" lon="-1.201058">
        <ele>25.876144</ele>
        <time>2026-03-26T21:28:55.825Z</time>
      </trkpt>
      <trkpt lat="44.033133" lon="-1.201610">
        <ele>25.716835</ele>
        <time>2026-03-26T21:29:00.952Z</time>
      </trkpt>
      <trkpt lat="44.033279" lon="-1.202277">
        <ele>25.522924</ele>
        <time>2026-03-26T21:29:07.561Z</time>
      </trkpt>
      <trkpt lat="44.032905" lon="-1.202664">
        <ele>25.342600</ele>
        <time>2026-03-26T21:29:16.995Z</time>
      </trkpt>
      <trkpt lat="44.032756" lon="-1.202955">
        <ele>25.243240</ele>
        <time>2026-03-26T21:29:22.419Z</time>
      </trkpt>
      <trkpt lat="44.032589" lon="-1.203476">
        <ele>25.069732</ele>
        <time>2026-03-26T21:29:31.072Z</time>
      </trkpt>
      <trkpt lat="44.032288" lon="-1.205122">
        <ele>24.541824</ele>
        <time>2026-03-26T21:29:53.348Z</time>
      </trkpt>
      <trkpt lat="44.032143" lon="-1.205521">
        <ele>24.422111</ele>
        <time>2026-03-26T21:29:58.993Z</time>
      </trkpt>
      <trkpt lat="44.031883" lon="-1.205925">
        <ele>24.360032</ele>
        <time>2026-03-26T21:30:06.073Z</time>
      </trkpt>
      <trkpt lat="44.029675" lon="-1.208438">
        <ele>24.158565</ele>
        <time>2026-03-26T21:31:04.417Z</time>
      </trkpt>
      <trkpt lat="44.029196" lon="-1.208984">
        <ele>24.058009</ele>
        <time>2026-03-26T21:31:16.800Z</time>
      </trkpt>
      <trkpt lat="44.028587" lon="-1.211979">
        <ele>23.081889</ele>
        <time>2026-03-26T21:31:59.039Z</time>
      </trkpt>
      <trkpt lat="44.028320" lon="-1.213287">
        <ele>22.415697</ele>
        <time>2026-03-26T21:32:11.230Z</time>
      </trkpt>
      <trkpt lat="44.028047" lon="-1.214712">
        <ele>21.458930</ele>
        <time>2026-03-26T21:32:24.048Z</time>
      </trkpt>
      <trkpt lat="44.027385" lon="-1.217903">
        <ele>19.984647</ele>
        <time>2026-03-26T21:32:54.539Z</time>
      </trkpt>
      <trkpt lat="44.027273" lon="-1.218673">
        <ele>20.108512</ele>
        <time>2026-03-26T21:33:03.926Z</time>
      </trkpt>
      <trkpt lat="44.027207" lon="-1.219408">
        <ele>20.420467</ele>
        <time>2026-03-26T21:33:13.713Z</time>
      </trkpt>
      <trkpt lat="44.027192" lon="-1.220325">
        <ele>20.806769</ele>
        <time>2026-03-26T21:33:25.896Z</time>
      </trkpt>
      <trkpt lat="44.027209" lon="-1.220868">
        <ele>20.949869</ele>
        <time>2026-03-26T21:33:32.501Z</time>
      </trkpt>
      <trkpt lat="44.027291" lon="-1.221789">
        <ele>20.967865</ele>
        <time>2026-03-26T21:33:42.572Z</time>
      </trkpt>
      <trkpt lat="44.027474" lon="-1.222996">
        <ele>20.991785</ele>
        <time>2026-03-26T21:33:54.878Z</time>
      </trkpt>
      <trkpt lat="44.028741" lon="-1.229242">
        <ele>20.085499</ele>
        <time>2026-03-26T21:35:01.349Z</time>
      </trkpt>
      <trkpt lat="44.029168" lon="-1.231447">
        <ele>19.246549</ele>
        <time>2026-03-26T21:35:23.264Z</time>
      </trkpt>
      <trkpt lat="44.029868" lon="-1.235103">
        <ele>17.017239</ele>
        <time>2026-03-26T21:35:56.578Z</time>
      </trkpt>
      <trkpt lat="44.030004" lon="-1.236088">
        <ele>17.068596</ele>
        <time>2026-03-26T21:36:07.001Z</time>
      </trkpt>
      <trkpt lat="44.030082" lon="-1.236848">
        <ele>17.151431</ele>
        <time>2026-03-26T21:36:16.020Z</time>
      </trkpt>
      <trkpt lat="44.030113" lon="-1.237613">
        <ele>17.234105</ele>
        <time>2026-03-26T21:36:25.387Z</time>
      </trkpt>
      <trkpt lat="44.030080" lon="-1.238969">
        <ele>17.669995</ele>
        <time>2026-03-26T21:36:42.054Z</time>
      </trkpt>
      <trkpt lat="44.030010" lon="-1.239666">
        <ele>17.900944</ele>
        <time>2026-03-26T21:36:50.469Z</time>
      </trkpt>
      <trkpt lat="44.029880" lon="-1.240690">
        <ele>18.073383</ele>
        <time>2026-03-26T21:37:02.386Z</time>
      </trkpt>
      <trkpt lat="44.029256" lon="-1.245567">
        <ele>17.731578</ele>
        <time>2026-03-26T21:37:54.505Z</time>
      </trkpt>
      <trkpt lat="44.028697" lon="-1.249938">
        <ele>15.446973</ele>
        <time>2026-03-26T21:38:34.497Z</time>
      </trkpt>
      <trkpt lat="44.028856" lon="-1.250117">
        <ele>15.348446</ele>
        <time>2026-03-26T21:38:38.213Z</time>
      </trkpt>
      <trkpt lat="44.028978" lon="-1.250309">
        <ele>15.273871</ele>
        <time>2026-03-26T21:38:41.601Z</time>
      </trkpt>
      <trkpt lat="44.030034" lon="-1.252378">
        <ele>14.526788</ele>
        <time>2026-03-26T21:39:16.536Z</time>
      </trkpt>
      <trkpt lat="44.031727" lon="-1.255689">
        <ele>13.193587</ele>
        <time>2026-03-26T21:40:10.842Z</time>
      </trkpt>
      <trkpt lat="44.031704" lon="-1.255716">
        <ele>13.179034</ele>
        <time>2026-03-26T21:40:11.408Z</time>
      </trkpt>
      <trkpt lat="44.031759" lon="-1.255804">
        <ele>13.138497</ele>
        <time>2026-03-26T21:40:12.956Z</time>
      </trkpt>
      <trkpt lat="44.031960" lon="-1.255665">
        <ele>13.030158</ele>
        <time>2026-03-26T21:40:17.177Z</time>
      </trkpt>
      <trkpt lat="44.031992" lon="-1.255802">
        <ele>12.980679</ele>
        <time>2026-03-26T21:40:18.555Z</time>
      </trkpt>
      <trkpt lat="44.032020" lon="-1.255904">
        <ele>12.943175</ele>
        <time>2026-03-26T21:40:19.595Z</time>
      </trkpt>
      <trkpt lat="44.032079" lon="-1.256108">
        <ele>12.867645</ele>
        <time>2026-03-26T21:40:21.685Z</time>
      </trkpt>
      <trkpt lat="44.032121" lon="-1.256231">
        <ele>12.820872</ele>
        <time>2026-03-26T21:40:22.998Z</time>
      </trkpt>
      <trkpt lat="44.032298" lon="-1.256657">
        <ele>12.651866</ele>
        <time>2026-03-26T21:40:27.775Z</time>
      </trkpt>
      <trkpt lat="44.032303" lon="-1.256718">
        <ele>12.630777</ele>
        <time>2026-03-26T21:40:28.369Z</time>
      </trkpt>
      <trkpt lat="44.032476" lon="-1.257036">
        <ele>12.493799</ele>
        <time>2026-03-26T21:40:33.784Z</time>
      </trkpt>
      <trkpt lat="44.032655" lon="-1.257408">
        <ele>12.340043</ele>
        <time>2026-03-26T21:40:39.826Z</time>
      </trkpt>
      <trkpt lat="44.032832" lon="-1.257776">
        <ele>12.187959</ele>
        <time>2026-03-26T21:40:45.760Z</time>
      </trkpt>
      <trkpt lat="44.032879" lon="-1.257907">
        <ele>12.117237</ele>
        <time>2026-03-26T21:40:47.698Z</time>
      </trkpt>
      <trkpt lat="44.032942" lon="-1.258085">
        <ele>12.021334</ele>
        <time>2026-03-26T21:40:49.518Z</time>
      </trkpt>
      <trkpt lat="44.033020" lon="-1.258318">
        <ele>11.897094</ele>
        <time>2026-03-26T21:40:51.842Z</time>
      </trkpt>
      <trkpt lat="44.033063" lon="-1.258338">
        <ele>11.866610</ele>
        <time>2026-03-26T21:40:52.423Z</time>
      </trkpt>
      <trkpt lat="44.033152" lon="-1.258528">
        <ele>11.756993</ele>
        <time>2026-03-26T21:40:54.477Z</time>
      </trkpt>
      <trkpt lat="44.033272" lon="-1.259026">
        <ele>11.503108</ele>
        <time>2026-03-26T21:40:59.295Z</time>
      </trkpt>
      <trkpt lat="44.033504" lon="-1.259606">
        <ele>11.182276</ele>
        <time>2026-03-26T21:41:05.269Z</time>
      </trkpt>
      <trkpt lat="44.033610" lon="-1.260160">
        <ele>10.984081</ele>
        <time>2026-03-26T21:41:10.515Z</time>
      </trkpt>
      <trkpt lat="44.033718" lon="-1.260417">
        <ele>10.995001</ele>
        <time>2026-03-26T21:41:13.381Z</time>
      </trkpt>
      <trkpt lat="44.033807" lon="-1.260528">
        <ele>11.001100</ele>
        <time>2026-03-26T21:41:15.044Z</time>
      </trkpt>
      <trkpt lat="44.033909" lon="-1.260795">
        <ele>11.012191</ele>
        <time>2026-03-26T21:41:18.170Z</time>
      </trkpt>
      <trkpt lat="44.034053" lon="-1.260957">
        <ele>11.021640</ele>
        <time>2026-03-26T21:41:21.027Z</time>
      </trkpt>
      <trkpt lat="44.034027" lon="-1.261034">
        <ele>11.024761</ele>
        <time>2026-03-26T21:41:22.020Z</time>
      </trkpt>
      <trkpt lat="44.033961" lon="-1.261171">
        <ele>11.030810</ele>
        <time>2026-03-26T21:41:23.930Z</time>
      </trkpt>
      <trkpt lat="44.033938" lon="-1.261247">
        <ele>11.033835</ele>
        <time>2026-03-26T21:41:24.912Z</time>
      </trkpt>
      <trkpt lat="44.033907" lon="-1.261406">
        <ele>11.039878</ele>
        <time>2026-03-26T21:41:26.842Z</time>
      </trkpt>
      <trkpt lat="44.033654" lon="-1.261826">
        <ele>11.059978</ele>
        <time>2026-03-26T21:41:33.224Z</time>
      </trkpt>
      <trkpt lat="44.033540" lon="-1.261948">
        <ele>11.067317</ele>
        <time>2026-03-26T21:41:35.547Z</time>
      </trkpt>
      <trkpt lat="44.033307" lon="-1.262103">
        <ele>11.160136</ele>
        <time>2026-03-26T21:41:39.822Z</time>
      </trkpt>
      <trkpt lat="44.033092" lon="-1.262187">
        <ele>11.260427</ele>
        <time>2026-03-26T21:41:43.638Z</time>
      </trkpt>
      <trkpt lat="44.032434" lon="-1.262407">
        <ele>11.564345</ele>
        <time>2026-03-26T21:41:55.899Z</time>
      </trkpt>
      <trkpt lat="44.032148" lon="-1.262546">
        <ele>11.700400</ele>
        <time>2026-03-26T21:42:01.175Z</time>
      </trkpt>
      <trkpt lat="44.031637" lon="-1.262657">
        <ele>11.861640</ele>
        <time>2026-03-26T21:42:08.971Z</time>
      </trkpt>
      <trkpt lat="44.031415" lon="-1.262684">
        <ele>11.831596</ele>
        <time>2026-03-26T21:42:12.021Z</time>
      </trkpt>
      <trkpt lat="44.031128" lon="-1.262742">
        <ele>11.792496</ele>
        <time>2026-03-26T21:42:15.869Z</time>
      </trkpt>
      <trkpt lat="44.030399" lon="-1.262979">
        <ele>11.691562</ele>
        <time>2026-03-26T21:42:25.539Z</time>
      </trkpt>
      <trkpt lat="44.030043" lon="-1.263156">
        <ele>11.640591</ele>
        <time>2026-03-26T21:42:30.893Z</time>
      </trkpt>
      <trkpt lat="44.029906" lon="-1.263271">
        <ele>11.847688</ele>
        <time>2026-03-26T21:42:33.641Z</time>
      </trkpt>
      <trkpt lat="44.029606" lon="-1.263615">
        <ele>12.520555</ele>
        <time>2026-03-26T21:42:41.476Z</time>
      </trkpt>
      <trkpt lat="44.029237" lon="-1.264111">
        <ele>13.408629</ele>
        <time>2026-03-26T21:42:54.073Z</time>
      </trkpt>
      <trkpt lat="44.029182" lon="-1.264201">
        <ele>13.555599</ele>
        <time>2026-03-26T21:42:56.298Z</time>
      </trkpt>
      <trkpt lat="44.029170" lon="-1.264273">
        <ele>13.647562</ele>
        <time>2026-03-26T21:42:57.706Z</time>
      </trkpt>
      <trkpt lat="44.029022" lon="-1.265291">
        <ele>14.767397</ele>
        <time>2026-03-26T21:43:15.854Z</time>
      </trkpt>
      <trkpt lat="44.029016" lon="-1.265863">
        <ele>14.838492</ele>
        <time>2026-03-26T21:43:23.816Z</time>
      </trkpt>
      <trkpt lat="44.029125" lon="-1.266624">
        <ele>14.934926</ele>
        <time>2026-03-26T21:43:32.275Z</time>
      </trkpt>
      <trkpt lat="44.029564" lon="-1.269012">
        <ele>13.972430</ele>
        <time>2026-03-26T21:43:53.847Z</time>
      </trkpt>
      <trkpt lat="44.029604" lon="-1.269367">
        <ele>13.705914</ele>
        <time>2026-03-26T21:43:56.955Z</time>
      </trkpt>
      <trkpt lat="44.029594" lon="-1.269537">
        <ele>13.579405</ele>
        <time>2026-03-26T21:43:58.421Z</time>
      </trkpt>
      <trkpt lat="44.029555" lon="-1.269640">
        <ele>13.493064</ele>
        <time>2026-03-26T21:43:59.441Z</time>
      </trkpt>
      <trkpt lat="44.029523" lon="-1.269727">
        <ele>13.420583</ele>
        <time>2026-03-26T21:44:00.277Z</time>
      </trkpt>
      <trkpt lat="44.029346" lon="-1.270316">
        <ele>13.184138</ele>
        <time>2026-03-26T21:44:05.873Z</time>
      </trkpt>
      <trkpt lat="44.029337" lon="-1.270377">
        <ele>13.180618</ele>
        <time>2026-03-26T21:44:06.437Z</time>
      </trkpt>
      <trkpt lat="44.029306" lon="-1.270471">
        <ele>13.174772</ele>
        <time>2026-03-26T21:44:07.361Z</time>
      </trkpt>
      <trkpt lat="44.028920" lon="-1.270336">
        <ele>13.143478</ele>
        <time>2026-03-26T21:44:12.558Z</time>
      </trkpt>
      <trkpt lat="44.028807" lon="-1.270238">
        <ele>13.133007</ele>
        <time>2026-03-26T21:44:14.446Z</time>
      </trkpt>
      <trkpt lat="44.028624" lon="-1.270152">
        <ele>13.117820</ele>
        <time>2026-03-26T21:44:17.406Z</time>
      </trkpt>
      <trkpt lat="44.028533" lon="-1.270037">
        <ele>13.108153</ele>
        <time>2026-03-26T21:44:19.393Z</time>
      </trkpt>
      <trkpt lat="44.028305" lon="-1.270052">
        <ele>13.090206</ele>
        <time>2026-03-26T21:44:23.285Z</time>
      </trkpt>
      <trkpt lat="44.027903" lon="-1.270000">
        <ele>13.091133</ele>
        <time>2026-03-26T21:44:30.575Z</time>
      </trkpt>
      <trkpt lat="44.027299" lon="-1.270012">
        <ele>13.450439</ele>
        <time>2026-03-26T21:44:41.961Z</time>
      </trkpt>
      <trkpt lat="44.026850" lon="-1.269914">
        <ele>13.720780</ele>
        <time>2026-03-26T21:44:50.232Z</time>
      </trkpt>
      <trkpt lat="44.026497" lon="-1.270021">
        <ele>13.935679</ele>
        <time>2026-03-26T21:44:56.290Z</time>
      </trkpt>
      <trkpt lat="44.026229" lon="-1.270247">
        <ele>14.122104</ele>
        <time>2026-03-26T21:45:01.076Z</time>
      </trkpt>
      <trkpt lat="44.026119" lon="-1.270407">
        <ele>14.160615</ele>
        <time>2026-03-26T21:45:03.386Z</time>
      </trkpt>
      <trkpt lat="44.026065" lon="-1.270602">
        <ele>14.190682</ele>
        <time>2026-03-26T21:45:05.509Z</time>
      </trkpt>
      <trkpt lat="44.025750" lon="-1.271330">
        <ele>14.312935</ele>
        <time>2026-03-26T21:45:14.124Z</time>
      </trkpt>
      <trkpt lat="44.025706" lon="-1.271479">
        <ele>14.336112</ele>
        <time>2026-03-26T21:45:15.845Z</time>
      </trkpt>
      <trkpt lat="44.025591" lon="-1.271675">
        <ele>14.372511</ele>
        <time>2026-03-26T21:45:18.648Z</time>
      </trkpt>
      <trkpt lat="44.025507" lon="-1.272003">
        <ele>14.422610</ele>
        <time>2026-03-26T21:45:22.702Z</time>
      </trkpt>
      <trkpt lat="44.025449" lon="-1.272367">
        <ele>14.476256</ele>
        <time>2026-03-26T21:45:27.276Z</time>
      </trkpt>
      <trkpt lat="44.025406" lon="-1.272480">
        <ele>14.504758</ele>
        <time>2026-03-26T21:45:28.893Z</time>
      </trkpt>
      <trkpt lat="44.025019" lon="-1.272858">
        <ele>14.969905</ele>
        <time>2026-03-26T21:45:37.659Z</time>
      </trkpt>
      <trkpt lat="44.024182" lon="-1.274279">
        <ele>16.263011</ele>
        <time>2026-03-26T21:46:03.546Z</time>
      </trkpt>
      <trkpt lat="44.023963" lon="-1.274534">
        <ele>16.327841</ele>
        <time>2026-03-26T21:46:08.690Z</time>
      </trkpt>
      <trkpt lat="44.023882" lon="-1.274817">
        <ele>16.377554</ele>
        <time>2026-03-26T21:46:12.365Z</time>
      </trkpt>
      <trkpt lat="44.023721" lon="-1.275053">
        <ele>16.430649</ele>
        <time>2026-03-26T21:46:16.032Z</time>
      </trkpt>
      <trkpt lat="44.023636" lon="-1.275299">
        <ele>16.475194</ele>
        <time>2026-03-26T21:46:18.984Z</time>
      </trkpt>
      <trkpt lat="44.023482" lon="-1.275562">
        <ele>16.530550</ele>
        <time>2026-03-26T21:46:22.641Z</time>
      </trkpt>
      <trkpt lat="44.023461" lon="-1.275626">
        <ele>16.542032</ele>
        <time>2026-03-26T21:46:23.386Z</time>
      </trkpt>
      <trkpt lat="44.023470" lon="-1.275747">
        <ele>16.561885</ele>
        <time>2026-03-26T21:46:24.652Z</time>
      </trkpt>
      <trkpt lat="44.023567" lon="-1.275992">
        <ele>16.607533</ele>
        <time>2026-03-26T21:46:27.528Z</time>
      </trkpt>
      <trkpt lat="44.023647" lon="-1.276300">
        <ele>16.660981</ele>
        <time>2026-03-26T21:46:30.768Z</time>
      </trkpt>
      <trkpt lat="44.023730" lon="-1.276475">
        <ele>16.662656</ele>
        <time>2026-03-26T21:46:32.831Z</time>
      </trkpt>
      <trkpt lat="44.023845" lon="-1.276955">
        <ele>16.640849</ele>
        <time>2026-03-26T21:46:37.760Z</time>
      </trkpt>
      <trkpt lat="44.024271" lon="-1.278275">
        <ele>16.578489</ele>
        <time>2026-03-26T21:46:52.624Z</time>
      </trkpt>
      <trkpt lat="44.024619" lon="-1.279441">
        <ele>17.234536</ele>
        <time>2026-03-26T21:47:07.295Z</time>
      </trkpt>
      <trkpt lat="44.025193" lon="-1.281165">
        <ele>18.706842</ele>
        <time>2026-03-26T21:47:35.793Z</time>
      </trkpt>
      <trkpt lat="44.025424" lon="-1.281660">
        <ele>19.174491</ele>
        <time>2026-03-26T21:47:45.395Z</time>
      </trkpt>
      <trkpt lat="44.025611" lon="-1.281926">
        <ele>19.469299</ele>
        <time>2026-03-26T21:47:51.057Z</time>
      </trkpt>
      <trkpt lat="44.026015" lon="-1.282316">
        <ele>20.011311</ele>
        <time>2026-03-26T21:48:00.674Z</time>
      </trkpt>
      <trkpt lat="44.026816" lon="-1.282842">
        <ele>20.197870</ele>
        <time>2026-03-26T21:48:14.066Z</time>
      </trkpt>
      <trkpt lat="44.029754" lon="-1.284704">
        <ele>17.746504</ele>
        <time>2026-03-26T21:48:54.095Z</time>
      </trkpt>
      <trkpt lat="44.029949" lon="-1.284765">
        <ele>17.627773</ele>
        <time>2026-03-26T21:48:56.550Z</time>
      </trkpt>
      <trkpt lat="44.030002" lon="-1.284821">
        <ele>17.588235</ele>
        <time>2026-03-26T21:48:57.383Z</time>
      </trkpt>
      <trkpt lat="44.030088" lon="-1.284911">
        <ele>17.524301</ele>
        <time>2026-03-26T21:48:58.735Z</time>
      </trkpt>
      <trkpt lat="44.030445" lon="-1.285146">
        <ele>17.289679</ele>
        <time>2026-03-26T21:49:03.766Z</time>
      </trkpt>
      <trkpt lat="44.030661" lon="-1.285208">
        <ele>17.158663</ele>
        <time>2026-03-26T21:49:06.621Z</time>
      </trkpt>
      <trkpt lat="44.030744" lon="-1.285259">
        <ele>17.104761</ele>
        <time>2026-03-26T21:49:07.805Z</time>
      </trkpt>
      <trkpt lat="44.030936" lon="-1.285395">
        <ele>16.976767</ele>
        <time>2026-03-26T21:49:10.646Z</time>
      </trkpt>
      <trkpt lat="44.031163" lon="-1.285647">
        <ele>16.804236</ele>
        <time>2026-03-26T21:49:14.593Z</time>
      </trkpt>
      <trkpt lat="44.031340" lon="-1.285908">
        <ele>16.738249</ele>
        <time>2026-03-26T21:49:18.191Z</time>
      </trkpt>
      <trkpt lat="44.031442" lon="-1.286137">
        <ele>16.742420</ele>
        <time>2026-03-26T21:49:21.010Z</time>
      </trkpt>
      <trkpt lat="44.031560" lon="-1.286524">
        <ele>16.748931</ele>
        <time>2026-03-26T21:49:25.662Z</time>
      </trkpt>
      <trkpt lat="44.031593" lon="-1.286729">
        <ele>16.752184</ele>
        <time>2026-03-26T21:49:28.128Z</time>
      </trkpt>
      <trkpt lat="44.031608" lon="-1.286895">
        <ele>16.754775</ele>
        <time>2026-03-26T21:49:30.078Z</time>
      </trkpt>
      <trkpt lat="44.031595" lon="-1.287084">
        <ele>16.757716</ele>
        <time>2026-03-26T21:49:32.219Z</time>
      </trkpt>
      <trkpt lat="44.031646" lon="-1.287875">
        <ele>16.770015</ele>
        <time>2026-03-26T21:49:40.842Z</time>
      </trkpt>
      <trkpt lat="44.031671" lon="-1.288297">
        <ele>16.731025</ele>
        <time>2026-03-26T21:49:45.399Z</time>
      </trkpt>
      <trkpt lat="44.031611" lon="-1.288742">
        <ele>16.616728</ele>
        <time>2026-03-26T21:49:50.220Z</time>
      </trkpt>
      <trkpt lat="44.031639" lon="-1.290193">
        <ele>16.250297</ele>
        <time>2026-03-26T21:50:04.316Z</time>
      </trkpt>
      <trkpt lat="44.031630" lon="-1.290491">
        <ele>16.175001</ele>
        <time>2026-03-26T21:50:07.066Z</time>
      </trkpt>
      <trkpt lat="44.031605" lon="-1.291280">
        <ele>15.879529</ele>
        <time>2026-03-26T21:50:14.200Z</time>
      </trkpt>
      <trkpt lat="44.031570" lon="-1.291650">
        <ele>15.731027</ele>
        <time>2026-03-26T21:50:17.530Z</time>
      </trkpt>
      <trkpt lat="44.031314" lon="-1.292811">
        <ele>15.247793</ele>
        <time>2026-03-26T21:50:28.895Z</time>
      </trkpt>
      <trkpt lat="44.031271" lon="-1.293250">
        <ele>15.189326</ele>
        <time>2026-03-26T21:50:33.496Z</time>
      </trkpt>
      <trkpt lat="44.031112" lon="-1.293612">
        <ele>15.284384</ele>
        <time>2026-03-26T21:50:38.306Z</time>
      </trkpt>
      <trkpt lat="44.031053" lon="-1.293810">
        <ele>15.332412</ele>
        <time>2026-03-26T21:50:40.880Z</time>
      </trkpt>
      <trkpt lat="44.030655" lon="-1.295417">
        <ele>15.709717</ele>
        <time>2026-03-26T21:51:01.612Z</time>
      </trkpt>
      <trkpt lat="44.030602" lon="-1.295775">
        <ele>15.741378</ele>
        <time>2026-03-26T21:51:05.741Z</time>
      </trkpt>
      <trkpt lat="44.030550" lon="-1.296082">
        <ele>15.768698</ele>
        <time>2026-03-26T21:51:09.185Z</time>
      </trkpt>
      <trkpt lat="44.030556" lon="-1.296364">
        <ele>15.793136</ele>
        <time>2026-03-26T21:51:12.220Z</time>
      </trkpt>
      <trkpt lat="44.030712" lon="-1.297638">
        <ele>15.905081</ele>
        <time>2026-03-26T21:51:25.863Z</time>
      </trkpt>
      <trkpt lat="44.030764" lon="-1.297863">
        <ele>15.927026</ele>
        <time>2026-03-26T21:51:28.510Z</time>
      </trkpt>
      <trkpt lat="44.030930" lon="-1.298184">
        <ele>15.997778</ele>
        <time>2026-03-26T21:51:32.891Z</time>
      </trkpt>
      <trkpt lat="44.031183" lon="-1.298495">
        <ele>16.081809</ele>
        <time>2026-03-26T21:51:38.038Z</time>
      </trkpt>
      <trkpt lat="44.031591" lon="-1.298428">
        <ele>16.184055</ele>
        <time>2026-03-26T21:51:44.345Z</time>
      </trkpt>
      <trkpt lat="44.031763" lon="-1.298468">
        <ele>16.227455</ele>
        <time>2026-03-26T21:51:47.052Z</time>
      </trkpt>
      <trkpt lat="44.031847" lon="-1.298555">
        <ele>16.253520</ele>
        <time>2026-03-26T21:51:48.644Z</time>
      </trkpt>
      <trkpt lat="44.031892" lon="-1.298696">
        <ele>16.281123</ele>
        <time>2026-03-26T21:51:50.349Z</time>
      </trkpt>
      <trkpt lat="44.032138" lon="-1.300565">
        <ele>17.801189</ele>
        <time>2026-03-26T21:52:14.342Z</time>
      </trkpt>
      <trkpt lat="44.032152" lon="-1.300973">
        <ele>18.220244</ele>
        <time>2026-03-26T21:52:20.964Z</time>
      </trkpt>
      <trkpt lat="44.032229" lon="-1.301601">
        <ele>18.873828</ele>
        <time>2026-03-26T21:52:32.293Z</time>
      </trkpt>
      <trkpt lat="44.033055" lon="-1.302998">
        <ele>21.055940</ele>
        <time>2026-03-26T21:53:06.511Z</time>
      </trkpt>
      <trkpt lat="44.033532" lon="-1.303395">
        <ele>21.947389</ele>
        <time>2026-03-26T21:53:15.084Z</time>
      </trkpt>
      <trkpt lat="44.033742" lon="-1.303560">
        <ele>21.448919</ele>
        <time>2026-03-26T21:53:17.926Z</time>
      </trkpt>
      <trkpt lat="44.033978" lon="-1.303685">
        <ele>20.927005</ele>
        <time>2026-03-26T21:53:20.741Z</time>
      </trkpt>
      <trkpt lat="44.034025" lon="-1.303711">
        <ele>20.822469</ele>
        <time>2026-03-26T21:53:21.275Z</time>
      </trkpt>
      <trkpt lat="44.034633" lon="-1.304190">
        <ele>19.378342</ele>
        <time>2026-03-26T21:53:28.335Z</time>
      </trkpt>
      <trkpt lat="44.034948" lon="-1.304347">
        <ele>18.686791</ele>
        <time>2026-03-26T21:53:31.747Z</time>
      </trkpt>
      <trkpt lat="44.036201" lon="-1.305524">
        <ele>17.105044</ele>
        <time>2026-03-26T21:53:49.541Z</time>
      </trkpt>
      <trkpt lat="44.036831" lon="-1.306179">
        <ele>16.809396</ele>
        <time>2026-03-26T21:54:02.673Z</time>
      </trkpt>
      <trkpt lat="44.036977" lon="-1.306363">
        <ele>16.905212</ele>
        <time>2026-03-26T21:54:06.240Z</time>
      </trkpt>
      <trkpt lat="44.037491" lon="-1.307265">
        <ele>17.307643</ele>
        <time>2026-03-26T21:54:20.507Z</time>
      </trkpt>
      <trkpt lat="44.038083" lon="-1.307874">
        <ele>17.552723</ele>
        <time>2026-03-26T21:54:32.434Z</time>
      </trkpt>
      <trkpt lat="44.038570" lon="-1.308327">
        <ele>17.576261</ele>
        <time>2026-03-26T21:54:42.045Z</time>
      </trkpt>
      <trkpt lat="44.038707" lon="-1.308533">
        <ele>17.584367</ele>
        <time>2026-03-26T21:54:45.435Z</time>
      </trkpt>
      <trkpt lat="44.038947" lon="-1.310517">
        <ele>16.693326</ele>
        <time>2026-03-26T21:55:04.989Z</time>
      </trkpt>
      <trkpt lat="44.039056" lon="-1.311920">
        <ele>15.335675</ele>
        <time>2026-03-26T21:55:16.083Z</time>
      </trkpt>
      <trkpt lat="44.038670" lon="-1.313740">
        <ele>13.636610</ele>
        <time>2026-03-26T21:55:31.489Z</time>
      </trkpt>
      <trkpt lat="44.038435" lon="-1.314735">
        <ele>13.037631</ele>
        <time>2026-03-26T21:55:42.031Z</time>
      </trkpt>
      <trkpt lat="44.038310" lon="-1.315789">
        <ele>13.236695</ele>
        <time>2026-03-26T21:55:54.321Z</time>
      </trkpt>
      <trkpt lat="44.038247" lon="-1.316795">
        <ele>13.424869</ele>
        <time>2026-03-26T21:56:06.728Z</time>
      </trkpt>
      <trkpt lat="44.038256" lon="-1.317076">
        <ele>13.381528</ele>
        <time>2026-03-26T21:56:10.189Z</time>
      </trkpt>
      <trkpt lat="44.038338" lon="-1.317814">
        <ele>13.092689</ele>
        <time>2026-03-26T21:56:18.607Z</time>
      </trkpt>
      <trkpt lat="44.038349" lon="-1.318341">
        <ele>12.888765</ele>
        <time>2026-03-26T21:56:23.825Z</time>
      </trkpt>
      <trkpt lat="44.038325" lon="-1.318793">
        <ele>12.713461</ele>
        <time>2026-03-26T21:56:27.938Z</time>
      </trkpt>
      <trkpt lat="44.038238" lon="-1.319194">
        <ele>12.551449</ele>
        <time>2026-03-26T21:56:31.487Z</time>
      </trkpt>
      <trkpt lat="44.037919" lon="-1.319995">
        <ele>11.443542</ele>
        <time>2026-03-26T21:56:38.674Z</time>
      </trkpt>
      <trkpt lat="44.037858" lon="-1.320204">
        <ele>11.122381</ele>
        <time>2026-03-26T21:56:40.391Z</time>
      </trkpt>
      <trkpt lat="44.037777" lon="-1.320728">
        <ele>10.359264</ele>
        <time>2026-03-26T21:56:44.466Z</time>
      </trkpt>
      <trkpt lat="44.037726" lon="-1.321242">
        <ele>9.620499</ele>
        <time>2026-03-26T21:56:48.471Z</time>
      </trkpt>
      <trkpt lat="44.037593" lon="-1.322532">
        <ele>8.795904</ele>
        <time>2026-03-26T21:56:59.220Z</time>
      </trkpt>
      <trkpt lat="44.037501" lon="-1.323016">
        <ele>8.721485</ele>
        <time>2026-03-26T21:57:04.067Z</time>
      </trkpt>
      <trkpt lat="44.037323" lon="-1.323541">
        <ele>8.635200</ele>
        <time>2026-03-26T21:57:10.635Z</time>
      </trkpt>
      <trkpt lat="44.036820" lon="-1.324850">
        <ele>9.265394</ele>
        <time>2026-03-26T21:57:32.044Z</time>
      </trkpt>
      <trkpt lat="44.036655" lon="-1.325261">
        <ele>9.654830</ele>
        <time>2026-03-26T21:57:39.252Z</time>
      </trkpt>
      <trkpt lat="44.036292" lon="-1.326036">
        <ele>10.420049</ele>
        <time>2026-03-26T21:57:52.303Z</time>
      </trkpt>
      <trkpt lat="44.036303" lon="-1.326174">
        <ele>10.534914</ele>
        <time>2026-03-26T21:57:54.112Z</time>
      </trkpt>
      <trkpt lat="44.036357" lon="-1.326676">
        <ele>10.799095</ele>
        <time>2026-03-26T21:58:00.537Z</time>
      </trkpt>
      <trkpt lat="44.036116" lon="-1.326632">
        <ele>10.951007</ele>
        <time>2026-03-26T21:58:04.569Z</time>
      </trkpt>
      <trkpt lat="44.035792" lon="-1.326602">
        <ele>11.153948</ele>
        <time>2026-03-26T21:58:09.989Z</time>
      </trkpt>
      <trkpt lat="44.035473" lon="-1.326655">
        <ele>11.354734</ele>
        <time>2026-03-26T21:58:15.487Z</time>
      </trkpt>
      <trkpt lat="44.035189" lon="-1.326795">
        <ele>11.543045</ele>
        <time>2026-03-26T21:58:20.787Z</time>
      </trkpt>
      <trkpt lat="44.034964" lon="-1.326926">
        <ele>11.695487</ele>
        <time>2026-03-26T21:58:25.062Z</time>
      </trkpt>
      <trkpt lat="44.034187" lon="-1.327757">
        <ele>12.038180</ele>
        <time>2026-03-26T21:58:40.984Z</time>
      </trkpt>
      <trkpt lat="44.034331" lon="-1.328184">
        <ele>12.149757</ele>
        <time>2026-03-26T21:58:46.538Z</time>
      </trkpt>
      <trkpt lat="44.034279" lon="-1.328210">
        <ele>12.167940</ele>
        <time>2026-03-26T21:58:47.448Z</time>
      </trkpt>
      <trkpt lat="44.033628" lon="-1.328207">
        <ele>12.408486</ele>
        <time>2026-03-26T21:58:57.322Z</time>
      </trkpt>
      <trkpt lat="44.032133" lon="-1.328158">
        <ele>13.148705</ele>
        <time>2026-03-26T21:59:22.043Z</time>
      </trkpt>
      <trkpt lat="44.030713" lon="-1.328096">
        <ele>14.572013</ele>
        <time>2026-03-26T21:59:50.168Z</time>
      </trkpt>
      <trkpt lat="44.030545" lon="-1.328005">
        <ele>14.762987</ele>
        <time>2026-03-26T21:59:53.782Z</time>
      </trkpt>
      <trkpt lat="44.029949" lon="-1.327915">
        <ele>15.018439</ele>
        <time>2026-03-26T22:00:04.733Z</time>
      </trkpt>
      <trkpt lat="44.029489" lon="-1.327990">
        <ele>14.825712</ele>
        <time>2026-03-26T22:00:12.065Z</time>
      </trkpt>
      <trkpt lat="44.028102" lon="-1.327783">
        <ele>13.978237</ele>
        <time>2026-03-26T22:00:28.942Z</time>
      </trkpt>
      <trkpt lat="44.027302" lon="-1.327823">
        <ele>12.970323</ele>
        <time>2026-03-26T22:00:37.936Z</time>
      </trkpt>
      <trkpt lat="44.025028" lon="-1.327740">
        <ele>11.147631</ele>
        <time>2026-03-26T22:01:06.266Z</time>
      </trkpt>
      <trkpt lat="44.024604" lon="-1.327725">
        <ele>11.229200</ele>
        <time>2026-03-26T22:01:13.128Z</time>
      </trkpt>
      <trkpt lat="44.021650" lon="-1.327295">
        <ele>14.039349</ele>
        <time>2026-03-26T22:02:11.575Z</time>
      </trkpt>
      <trkpt lat="44.021018" lon="-1.327116">
        <ele>14.458953</ele>
        <time>2026-03-26T22:02:21.921Z</time>
      </trkpt>
      <trkpt lat="44.020350" lon="-1.327025">
        <ele>14.545910</ele>
        <time>2026-03-26T22:02:31.678Z</time>
      </trkpt>
      <trkpt lat="44.020036" lon="-1.327040">
        <ele>14.586614</ele>
        <time>2026-03-26T22:02:36.198Z</time>
      </trkpt>
      <trkpt lat="44.018067" lon="-1.327446">
        <ele>14.788979</ele>
        <time>2026-03-26T22:03:07.379Z</time>
      </trkpt>
      <trkpt lat="44.016184" lon="-1.328512">
        <ele>14.155573</ele>
        <time>2026-03-26T22:03:35.395Z</time>
      </trkpt>
      <trkpt lat="44.014321" lon="-1.328057">
        <ele>12.722525</ele>
        <time>2026-03-26T22:03:58.893Z</time>
      </trkpt>
      <trkpt lat="44.013543" lon="-1.328051">
        <ele>12.627701</ele>
        <time>2026-03-26T22:04:08.765Z</time>
      </trkpt>
      <trkpt lat="44.012873" lon="-1.328046">
        <ele>12.581566</ele>
        <time>2026-03-26T22:04:18.814Z</time>
      </trkpt>
      <trkpt lat="44.012094" lon="-1.327631">
        <ele>12.910887</ele>
        <time>2026-03-26T22:04:34.197Z</time>
      </trkpt>
      <trkpt lat="44.011999" lon="-1.327611">
        <ele>12.991456</ele>
        <time>2026-03-26T22:04:36.086Z</time>
      </trkpt>
      <trkpt lat="44.010387" lon="-1.327260">
        <ele>14.213876</ele>
        <time>2026-03-26T22:05:06.084Z</time>
      </trkpt>
      <trkpt lat="44.009282" lon="-1.327348">
        <ele>14.687899</ele>
        <time>2026-03-26T22:05:24.302Z</time>
      </trkpt>
      <trkpt lat="44.008869" lon="-1.327476">
        <ele>14.811018</ele>
        <time>2026-03-26T22:05:30.816Z</time>
      </trkpt>
      <trkpt lat="44.007598" lon="-1.327869">
        <ele>14.495364</ele>
        <time>2026-03-26T22:05:49.376Z</time>
      </trkpt>
      <trkpt lat="44.007038" lon="-1.327970">
        <ele>14.315301</ele>
        <time>2026-03-26T22:05:56.483Z</time>
      </trkpt>
      <trkpt lat="44.004902" lon="-1.328355">
        <ele>13.819146</ele>
        <time>2026-03-26T22:06:24.719Z</time>
      </trkpt>
      <trkpt lat="44.004833" lon="-1.328427">
        <ele>13.880217</ele>
        <time>2026-03-26T22:06:26.278Z</time>
      </trkpt>
      <trkpt lat="44.004312" lon="-1.328973">
        <ele>14.342065</ele>
        <time>2026-03-26T22:06:39.549Z</time>
      </trkpt>
      <trkpt lat="44.003915" lon="-1.329232">
        <ele>14.652496</ele>
        <time>2026-03-26T22:06:49.172Z</time>
      </trkpt>
      <trkpt lat="44.003278" lon="-1.329327">
        <ele>14.560602</ele>
        <time>2026-03-26T22:07:01.135Z</time>
      </trkpt>
      <trkpt lat="44.003021" lon="-1.329285">
        <ele>14.477099</ele>
        <time>2026-03-26T22:07:04.790Z</time>
      </trkpt>
      <trkpt lat="44.002039" lon="-1.330674">
        <ele>14.099699</ele>
        <time>2026-03-26T22:07:21.312Z</time>
      </trkpt>
      <trkpt lat="44.001920" lon="-1.330866">
        <ele>14.075750</ele>
        <time>2026-03-26T22:07:23.556Z</time>
      </trkpt>
      <trkpt lat="44.001886" lon="-1.330998">
        <ele>14.062501</ele>
        <time>2026-03-26T22:07:24.856Z</time>
      </trkpt>
      <trkpt lat="44.001612" lon="-1.332080">
        <ele>13.954107</ele>
        <time>2026-03-26T22:07:37.884Z</time>
      </trkpt>
      <trkpt lat="44.000938" lon="-1.333189">
        <ele>13.955486</ele>
        <time>2026-03-26T22:07:57.033Z</time>
      </trkpt>
      <trkpt lat="44.000646" lon="-1.333724">
        <ele>13.981969</ele>
        <time>2026-03-26T22:08:04.350Z</time>
      </trkpt>
      <trkpt lat="44.000381" lon="-1.334944">
        <ele>13.757274</ele>
        <time>2026-03-26T22:08:15.924Z</time>
      </trkpt>
      <trkpt lat="43.999754" lon="-1.335479">
        <ele>13.211981</ele>
        <time>2026-03-26T22:08:24.847Z</time>
      </trkpt>
      <trkpt lat="43.998785" lon="-1.336025">
        <ele>12.553613</ele>
        <time>2026-03-26T22:08:38.719Z</time>
      </trkpt>
      <trkpt lat="43.998445" lon="-1.336202">
        <ele>12.413581</ele>
        <time>2026-03-26T22:08:43.825Z</time>
      </trkpt>
      <trkpt lat="43.997557" lon="-1.336349">
        <ele>12.068660</ele>
        <time>2026-03-26T22:08:55.993Z</time>
      </trkpt>
      <trkpt lat="43.996716" lon="-1.336216">
        <ele>12.065511</ele>
        <time>2026-03-26T22:09:07.334Z</time>
      </trkpt>
      <trkpt lat="43.996251" lon="-1.336110">
        <ele>12.124393</ele>
        <time>2026-03-26T22:09:13.893Z</time>
      </trkpt>
      <trkpt lat="43.994765" lon="-1.335701">
        <ele>13.628225</ele>
        <time>2026-03-26T22:09:41.460Z</time>
      </trkpt>
      <trkpt lat="43.993162" lon="-1.335621">
        <ele>16.374794</ele>
        <time>2026-03-26T22:10:21.514Z</time>
      </trkpt>
      <trkpt lat="43.991712" lon="-1.335612">
        <ele>18.265566</ele>
        <time>2026-03-26T22:10:51.100Z</time>
      </trkpt>
      <trkpt lat="43.989481" lon="-1.335498">
        <ele>17.191798</ele>
        <time>2026-03-26T22:11:19.250Z</time>
      </trkpt>
      <trkpt lat="43.988787" lon="-1.335579">
        <ele>16.625546</ele>
        <time>2026-03-26T22:11:27.564Z</time>
      </trkpt>
      <trkpt lat="43.988554" lon="-1.335668">
        <ele>16.429079</ele>
        <time>2026-03-26T22:11:30.552Z</time>
      </trkpt>
      <trkpt lat="43.986581" lon="-1.336419">
        <ele>15.752499</ele>
        <time>2026-03-26T22:12:00.041Z</time>
      </trkpt>
      <trkpt lat="43.986164" lon="-1.336687">
        <ele>15.334828</ele>
        <time>2026-03-26T22:12:06.099Z</time>
      </trkpt>
      <trkpt lat="43.985940" lon="-1.337088">
        <ele>15.002756</ele>
        <time>2026-03-26T22:12:10.556Z</time>
      </trkpt>
      <trkpt lat="43.985614" lon="-1.338009">
        <ele>14.331356</ele>
        <time>2026-03-26T22:12:19.177Z</time>
      </trkpt>
      <trkpt lat="43.985496" lon="-1.338267">
        <ele>14.132294</ele>
        <time>2026-03-26T22:12:21.718Z</time>
      </trkpt>
      <trkpt lat="43.984214" lon="-1.340818">
        <ele>12.782075</ele>
        <time>2026-03-26T22:12:49.728Z</time>
      </trkpt>
      <trkpt lat="43.983984" lon="-1.341093">
        <ele>12.893134</ele>
        <time>2026-03-26T22:12:54.804Z</time>
      </trkpt>
      <trkpt lat="43.983328" lon="-1.341463">
        <ele>13.152282</ele>
        <time>2026-03-26T22:13:08.138Z</time>
      </trkpt>
      <trkpt lat="43.981976" lon="-1.341928">
        <ele>14.112632</ele>
        <time>2026-03-26T22:13:35.316Z</time>
      </trkpt>
      <trkpt lat="43.978907" lon="-1.342779">
        <ele>14.480064</ele>
        <time>2026-03-26T22:14:22.709Z</time>
      </trkpt>
      <trkpt lat="43.974540" lon="-1.344037">
        <ele>12.694118</ele>
        <time>2026-03-26T22:15:21.545Z</time>
      </trkpt>
      <trkpt lat="43.973341" lon="-1.344404">
        <ele>13.066496</ele>
        <time>2026-03-26T22:15:40.063Z</time>
      </trkpt>
      <trkpt lat="43.972972" lon="-1.344627">
        <ele>13.269222</ele>
        <time>2026-03-26T22:15:47.552Z</time>
      </trkpt>
      <trkpt lat="43.971725" lon="-1.345576">
        <ele>14.041830</ele>
        <time>2026-03-26T22:16:15.524Z</time>
      </trkpt>
      <trkpt lat="43.970243" lon="-1.346704">
        <ele>14.142511</ele>
        <time>2026-03-26T22:16:39.135Z</time>
      </trkpt>
      <trkpt lat="43.968271" lon="-1.348135">
        <ele>13.523807</ele>
        <time>2026-03-26T22:17:08.248Z</time>
      </trkpt>
      <trkpt lat="43.967938" lon="-1.348233">
        <ele>13.462635</ele>
        <time>2026-03-26T22:17:14.127Z</time>
      </trkpt>
      <trkpt lat="43.967027" lon="-1.348062">
        <ele>13.825493</ele>
        <time>2026-03-26T22:17:30.826Z</time>
      </trkpt>
      <trkpt lat="43.965839" lon="-1.347634">
        <ele>14.377088</ele>
        <time>2026-03-26T22:17:51.143Z</time>
      </trkpt>
      <trkpt lat="43.964430" lon="-1.347680">
        <ele>14.454004</ele>
        <time>2026-03-26T22:18:12.004Z</time>
      </trkpt>
      <trkpt lat="43.964184" lon="-1.347646">
        <ele>14.437981</ele>
        <time>2026-03-26T22:18:15.787Z</time>
      </trkpt>
      <trkpt lat="43.963508" lon="-1.347555">
        <ele>13.999802</ele>
        <time>2026-03-26T22:18:25.434Z</time>
      </trkpt>
      <trkpt lat="43.963375" lon="-1.347646">
        <ele>13.904153</ele>
        <time>2026-03-26T22:18:27.409Z</time>
      </trkpt>
      <trkpt lat="43.962651" lon="-1.349207">
        <ele>12.926136</ele>
        <time>2026-03-26T22:18:43.587Z</time>
      </trkpt>
      <trkpt lat="43.962564" lon="-1.349355">
        <ele>12.798374</ele>
        <time>2026-03-26T22:18:45.161Z</time>
      </trkpt>
      <trkpt lat="43.962185" lon="-1.349716">
        <ele>12.371522</ele>
        <time>2026-03-26T22:18:50.517Z</time>
      </trkpt>
      <trkpt lat="43.961456" lon="-1.350120">
        <ele>11.642463</ele>
        <time>2026-03-26T22:19:00.392Z</time>
      </trkpt>
      <trkpt lat="43.959663" lon="-1.350989">
        <ele>11.655991</ele>
        <time>2026-03-26T22:19:29.600Z</time>
      </trkpt>
      <trkpt lat="43.958457" lon="-1.351936">
        <ele>11.642038</ele>
        <time>2026-03-26T22:19:50.325Z</time>
      </trkpt>
      <trkpt lat="43.958266" lon="-1.352039">
        <ele>11.639974</ele>
        <time>2026-03-26T22:19:53.239Z</time>
      </trkpt>
      <trkpt lat="43.957918" lon="-1.352371">
        <ele>11.652477</ele>
        <time>2026-03-26T22:19:59.271Z</time>
      </trkpt>
      <trkpt lat="43.957398" lon="-1.352781">
        <ele>11.679306</ele>
        <time>2026-03-26T22:20:07.780Z</time>
      </trkpt>
      <trkpt lat="43.956882" lon="-1.353173">
        <ele>11.705696</ele>
        <time>2026-03-26T22:20:16.522Z</time>
      </trkpt>
      <trkpt lat="43.956509" lon="-1.353333">
        <ele>11.740213</ele>
        <time>2026-03-26T22:20:22.874Z</time>
      </trkpt>
      <trkpt lat="43.956015" lon="-1.353395">
        <ele>11.864404</ele>
        <time>2026-03-26T22:20:31.599Z</time>
      </trkpt>
      <trkpt lat="43.955076" lon="-1.353452">
        <ele>12.099734</ele>
        <time>2026-03-26T22:20:47.104Z</time>
      </trkpt>
      <trkpt lat="43.954721" lon="-1.353466">
        <ele>12.174171</ele>
        <time>2026-03-26T22:20:51.705Z</time>
      </trkpt>
      <trkpt lat="43.954259" lon="-1.353472">
        <ele>12.200782</ele>
        <time>2026-03-26T22:20:57.924Z</time>
      </trkpt>
      <trkpt lat="43.953769" lon="-1.353507">
        <ele>12.229043</ele>
        <time>2026-03-26T22:21:04.871Z</time>
      </trkpt>
      <trkpt lat="43.953021" lon="-1.353611">
        <ele>12.272342</ele>
        <time>2026-03-26T22:21:16.185Z</time>
      </trkpt>
      <trkpt lat="43.952729" lon="-1.353620">
        <ele>12.546237</ele>
        <time>2026-03-26T22:21:21.854Z</time>
      </trkpt>
      <trkpt lat="43.952094" lon="-1.353604">
        <ele>13.180939</ele>
        <time>2026-03-26T22:21:35.190Z</time>
      </trkpt>
      <trkpt lat="43.952045" lon="-1.353553">
        <ele>13.242130</ele>
        <time>2026-03-26T22:21:36.417Z</time>
      </trkpt>
      <trkpt lat="43.951991" lon="-1.353553">
        <ele>13.296096</ele>
        <time>2026-03-26T22:21:37.465Z</time>
      </trkpt>
      <trkpt lat="43.950675" lon="-1.353593">
        <ele>14.133796</ele>
        <time>2026-03-26T22:22:01.533Z</time>
      </trkpt>
      <trkpt lat="43.949253" lon="-1.353707">
        <ele>14.138043</ele>
        <time>2026-03-26T22:22:21.996Z</time>
      </trkpt>
      <trkpt lat="43.948997" lon="-1.353673">
        <ele>13.919180</ele>
        <time>2026-03-26T22:22:25.115Z</time>
      </trkpt>
      <trkpt lat="43.948792" lon="-1.353587">
        <ele>13.736931</ele>
        <time>2026-03-26T22:22:27.695Z</time>
      </trkpt>
      <trkpt lat="43.948491" lon="-1.353386">
        <ele>13.452697</ele>
        <time>2026-03-26T22:22:31.676Z</time>
      </trkpt>
      <trkpt lat="43.948115" lon="-1.353188">
        <ele>13.110476</ele>
        <time>2026-03-26T22:22:36.445Z</time>
      </trkpt>
      <trkpt lat="43.947370" lon="-1.353258">
        <ele>12.640468</ele>
        <time>2026-03-26T22:22:45.815Z</time>
      </trkpt>
      <trkpt lat="43.946572" lon="-1.353279">
        <ele>12.371159</ele>
        <time>2026-03-26T22:22:57.266Z</time>
      </trkpt>
      <trkpt lat="43.945960" lon="-1.353341">
        <ele>12.164110</ele>
        <time>2026-03-26T22:23:06.174Z</time>
      </trkpt>
      <trkpt lat="43.945763" lon="-1.353392">
        <ele>12.021189</ele>
        <time>2026-03-26T22:23:08.976Z</time>
      </trkpt>
      <trkpt lat="43.945564" lon="-1.353536">
        <ele>11.820940</ele>
        <time>2026-03-26T22:23:12.042Z</time>
      </trkpt>
      <trkpt lat="43.945181" lon="-1.353904">
        <ele>11.405325</ele>
        <time>2026-03-26T22:23:18.109Z</time>
      </trkpt>
      <trkpt lat="43.945040" lon="-1.354116">
        <ele>11.219882</ele>
        <time>2026-03-26T22:23:20.683Z</time>
      </trkpt>
      <trkpt lat="43.944760" lon="-1.354373">
        <ele>10.920370</ele>
        <time>2026-03-26T22:23:24.662Z</time>
      </trkpt>
      <trkpt lat="43.944540" lon="-1.354526">
        <ele>10.700799</ele>
        <time>2026-03-26T22:23:27.484Z</time>
      </trkpt>
      <trkpt lat="43.944353" lon="-1.354631">
        <ele>10.521251</ele>
        <time>2026-03-26T22:23:29.787Z</time>
      </trkpt>
      <trkpt lat="43.944150" lon="-1.354695">
        <ele>10.340667</ele>
        <time>2026-03-26T22:23:32.181Z</time>
      </trkpt>
      <trkpt lat="43.943497" lon="-1.354673">
        <ele>9.774018</ele>
        <time>2026-03-26T22:23:39.848Z</time>
      </trkpt>
      <trkpt lat="43.943403" lon="-1.354666">
        <ele>9.692355</ele>
        <time>2026-03-26T22:23:40.984Z</time>
      </trkpt>
      <trkpt lat="43.942010" lon="-1.354596">
        <ele>8.897914</ele>
        <time>2026-03-26T22:24:00.184Z</time>
      </trkpt>
      <trkpt lat="43.941200" lon="-1.354278">
        <ele>8.781230</ele>
        <time>2026-03-26T22:24:13.308Z</time>
      </trkpt>
      <trkpt lat="43.940908" lon="-1.354200">
        <ele>8.740011</ele>
        <time>2026-03-26T22:24:17.489Z</time>
      </trkpt>
      <trkpt lat="43.940099" lon="-1.354482">
        <ele>8.480763</ele>
        <time>2026-03-26T22:24:28.418Z</time>
      </trkpt>
      <trkpt lat="43.939907" lon="-1.354781">
        <ele>8.385057</ele>
        <time>2026-03-26T22:24:32.163Z</time>
      </trkpt>
      <trkpt lat="43.939199" lon="-1.355273">
        <ele>8.138887</ele>
        <time>2026-03-26T22:24:43.254Z</time>
      </trkpt>
      <trkpt lat="43.939061" lon="-1.355362">
        <ele>8.188184</ele>
        <time>2026-03-26T22:24:45.470Z</time>
      </trkpt>
      <trkpt lat="43.938381" lon="-1.355498">
        <ele>8.410770</ele>
        <time>2026-03-26T22:24:56.369Z</time>
      </trkpt>
      <trkpt lat="43.938248" lon="-1.355426">
        <ele>8.457019</ele>
        <time>2026-03-26T22:24:58.722Z</time>
      </trkpt>
      <trkpt lat="43.938035" lon="-1.355312">
        <ele>8.530977</ele>
        <time>2026-03-26T22:25:02.525Z</time>
      </trkpt>
      <trkpt lat="43.937782" lon="-1.355233">
        <ele>8.614993</ele>
        <time>2026-03-26T22:25:06.861Z</time>
      </trkpt>
      <trkpt lat="43.937380" lon="-1.355374">
        <ele>8.848826</ele>
        <time>2026-03-26T22:25:13.915Z</time>
      </trkpt>
      <trkpt lat="43.936901" lon="-1.355591">
        <ele>9.465222</ele>
        <time>2026-03-26T22:25:22.909Z</time>
      </trkpt>
      <trkpt lat="43.936693" lon="-1.355859">
        <ele>9.812346</ele>
        <time>2026-03-26T22:25:28.343Z</time>
      </trkpt>
      <trkpt lat="43.936298" lon="-1.355957">
        <ele>10.303236</ele>
        <time>2026-03-26T22:25:36.230Z</time>
      </trkpt>
      <trkpt lat="43.935951" lon="-1.355940">
        <ele>10.728016</ele>
        <time>2026-03-26T22:25:43.784Z</time>
      </trkpt>
      <trkpt lat="43.935708" lon="-1.355969">
        <ele>11.080269</ele>
        <time>2026-03-26T22:25:49.504Z</time>
      </trkpt>
      <trkpt lat="43.935578" lon="-1.355913">
        <ele>11.326547</ele>
        <time>2026-03-26T22:25:52.670Z</time>
      </trkpt>
      <trkpt lat="43.935463" lon="-1.355790">
        <ele>11.589193</ele>
        <time>2026-03-26T22:25:56.086Z</time>
      </trkpt>
      <trkpt lat="43.935418" lon="-1.355625">
        <ele>11.819087</ele>
        <time>2026-03-26T22:25:59.025Z</time>
      </trkpt>
      <trkpt lat="43.935337" lon="-1.355430">
        <ele>12.112410</ele>
        <time>2026-03-26T22:26:02.812Z</time>
      </trkpt>
      <trkpt lat="43.935296" lon="-1.354950">
        <ele>12.742227</ele>
        <time>2026-03-26T22:26:10.848Z</time>
      </trkpt>
      <trkpt lat="43.935252" lon="-1.354843">
        <ele>12.902777</ele>
        <time>2026-03-26T22:26:12.832Z</time>
      </trkpt>
      <trkpt lat="43.935169" lon="-1.354744">
        <ele>13.100751</ele>
        <time>2026-03-26T22:26:15.321Z</time>
      </trkpt>
      <trkpt lat="43.934689" lon="-1.354353">
        <ele>14.107662</ele>
        <time>2026-03-26T22:26:27.671Z</time>
      </trkpt>
      <trkpt lat="43.933513" lon="-1.353241">
        <ele>14.761726</ele>
        <time>2026-03-26T22:26:52.496Z</time>
      </trkpt>
      <trkpt lat="43.932966" lon="-1.352863">
        <ele>14.677711</ele>
        <time>2026-03-26T22:27:00.969Z</time>
      </trkpt>
      <trkpt lat="43.930357" lon="-1.352242">
        <ele>10.995583</ele>
        <time>2026-03-26T22:27:31.289Z</time>
      </trkpt>
      <trkpt lat="43.929682" lon="-1.352005">
        <ele>9.914245</ele>
        <time>2026-03-26T22:27:38.965Z</time>
      </trkpt>
      <trkpt lat="43.927907" lon="-1.351567">
        <ele>8.220256</ele>
        <time>2026-03-26T22:28:01.237Z</time>
      </trkpt>
      <trkpt lat="43.927506" lon="-1.351663">
        <ele>8.352270</ele>
        <time>2026-03-26T22:28:06.907Z</time>
      </trkpt>
      <trkpt lat="43.926716" lon="-1.352241">
        <ele>8.791667</ele>
        <time>2026-03-26T22:28:21.340Z</time>
      </trkpt>
      <trkpt lat="43.926310" lon="-1.352727">
        <ele>9.055440</ele>
        <time>2026-03-26T22:28:31.944Z</time>
      </trkpt>
      <trkpt lat="43.925576" lon="-1.353889">
        <ele>10.370626</ele>
        <time>2026-03-26T22:28:56.391Z</time>
      </trkpt>
      <trkpt lat="43.925327" lon="-1.354202">
        <ele>10.769771</ele>
        <time>2026-03-26T22:29:03.087Z</time>
      </trkpt>
      <trkpt lat="43.925130" lon="-1.354450">
        <ele>11.085771</ele>
        <time>2026-03-26T22:29:07.901Z</time>
      </trkpt>
      <trkpt lat="43.925040" lon="-1.354497">
        <ele>11.197319</ele>
        <time>2026-03-26T22:29:09.537Z</time>
      </trkpt>
      <trkpt lat="43.922063" lon="-1.356012">
        <ele>8.905693</ele>
        <time>2026-03-26T22:29:49.552Z</time>
      </trkpt>
      <trkpt lat="43.921317" lon="-1.356150">
        <ele>8.291902</ele>
        <time>2026-03-26T22:29:58.394Z</time>
      </trkpt>
      <trkpt lat="43.920940" lon="-1.356127">
        <ele>8.040140</ele>
        <time>2026-03-26T22:30:02.899Z</time>
      </trkpt>
      <trkpt lat="43.920174" lon="-1.355822">
        <ele>7.508492</ele>
        <time>2026-03-26T22:30:13.328Z</time>
      </trkpt>
      <trkpt lat="43.919871" lon="-1.355465">
        <ele>7.327477</ele>
        <time>2026-03-26T22:30:19.274Z</time>
      </trkpt>
      <trkpt lat="43.919389" lon="-1.355039">
        <ele>7.424277</ele>
        <time>2026-03-26T22:30:28.396Z</time>
      </trkpt>
      <trkpt lat="43.916076" lon="-1.352861">
        <ele>7.961758</ele>
        <time>2026-03-26T22:31:25.700Z</time>
      </trkpt>
      <trkpt lat="43.915846" lon="-1.352815">
        <ele>7.964112</ele>
        <time>2026-03-26T22:31:28.971Z</time>
      </trkpt>
      <trkpt lat="43.914537" lon="-1.352920">
        <ele>8.223158</ele>
        <time>2026-03-26T22:31:47.712Z</time>
      </trkpt>
      <trkpt lat="43.913779" lon="-1.353016">
        <ele>8.616342</ele>
        <time>2026-03-26T22:32:01.047Z</time>
      </trkpt>
      <trkpt lat="43.913645" lon="-1.352971">
        <ele>8.687559</ele>
        <time>2026-03-26T22:32:03.715Z</time>
      </trkpt>
      <trkpt lat="43.912695" lon="-1.352362">
        <ele>9.128323</ele>
        <time>2026-03-26T22:32:23.006Z</time>
      </trkpt>
      <trkpt lat="43.912331" lon="-1.352930">
        <ele>9.324771</ele>
        <time>2026-03-26T22:32:31.867Z</time>
      </trkpt>
      <trkpt lat="43.912314" lon="-1.353090">
        <ele>9.366565</ele>
        <time>2026-03-26T22:32:33.588Z</time>
      </trkpt>
      <trkpt lat="43.912424" lon="-1.353829">
        <ele>9.557741</ele>
        <time>2026-03-26T22:32:41.143Z</time>
      </trkpt>
      <trkpt lat="43.912340" lon="-1.354406">
        <ele>9.670500</ele>
        <time>2026-03-26T22:32:47.173Z</time>
      </trkpt>
      <trkpt lat="43.912217" lon="-1.354852">
        <ele>9.761979</ele>
        <time>2026-03-26T22:32:52.571Z</time>
      </trkpt>
      <trkpt lat="43.912154" lon="-1.355196">
        <ele>9.829969</ele>
        <time>2026-03-26T22:32:57.089Z</time>
      </trkpt>
      <trkpt lat="43.911818" lon="-1.356137">
        <ele>10.005249</ele>
        <time>2026-03-26T22:33:10.444Z</time>
      </trkpt>
      <trkpt lat="43.911701" lon="-1.356376">
        <ele>9.825987</ele>
        <time>2026-03-26T22:33:13.824Z</time>
      </trkpt>
      <trkpt lat="43.911619" lon="-1.356456">
        <ele>9.739678</ele>
        <time>2026-03-26T22:33:15.370Z</time>
      </trkpt>
      <trkpt lat="43.910928" lon="-1.356818">
        <ele>9.103664</ele>
        <time>2026-03-26T22:33:24.786Z</time>
      </trkpt>
      <trkpt lat="43.910683" lon="-1.357005">
        <ele>8.862893</ele>
        <time>2026-03-26T22:33:27.980Z</time>
      </trkpt>
      <trkpt lat="43.910373" lon="-1.357327">
        <ele>8.529473</ele>
        <time>2026-03-26T22:33:32.198Z</time>
      </trkpt>
      <trkpt lat="43.910221" lon="-1.357481">
        <ele>8.320926</ele>
        <time>2026-03-26T22:33:34.231Z</time>
      </trkpt>
      <trkpt lat="43.908776" lon="-1.359372">
        <ele>6.618928</ele>
        <time>2026-03-26T22:33:57.723Z</time>
      </trkpt>
      <trkpt lat="43.907851" lon="-1.360580">
        <ele>8.052402</ele>
        <time>2026-03-26T22:34:24.474Z</time>
      </trkpt>
      <trkpt lat="43.907192" lon="-1.361373">
        <ele>9.425278</ele>
        <time>2026-03-26T22:34:46.489Z</time>
      </trkpt>
      <trkpt lat="43.907146" lon="-1.361330">
        <ele>9.520657</ele>
        <time>2026-03-26T22:34:53.174Z</time>
      </trkpt>
      <trkpt lat="43.906786" lon="-1.361625">
        <ele>10.239633</ele>
        <time>2026-03-26T22:35:02.815Z</time>
      </trkpt>
      <trkpt lat="43.905636" lon="-1.362348">
        <ele>11.567066</ele>
        <time>2026-03-26T22:35:25.524Z</time>
      </trkpt>
      <trkpt lat="43.904924" lon="-1.362796">
        <ele>11.802030</ele>
        <time>2026-03-26T22:35:37.465Z</time>
      </trkpt>
      <trkpt lat="43.904243" lon="-1.363395">
        <ele>11.898568</ele>
        <time>2026-03-26T22:35:49.506Z</time>
      </trkpt>
      <trkpt lat="43.904024" lon="-1.363518">
        <ele>11.879852</ele>
        <time>2026-03-26T22:35:52.919Z</time>
      </trkpt>
      <trkpt lat="43.903643" lon="-1.363636">
        <ele>11.848925</ele>
        <time>2026-03-26T22:35:58.506Z</time>
      </trkpt>
      <trkpt lat="43.902166" lon="-1.363966">
        <ele>11.367342</ele>
        <time>2026-03-26T22:36:20.002Z</time>
      </trkpt>
      <trkpt lat="43.900394" lon="-1.364418">
        <ele>9.708413</ele>
        <time>2026-03-26T22:36:42.294Z</time>
      </trkpt>
      <trkpt lat="43.899091" lon="-1.364751">
        <ele>7.926705</ele>
        <time>2026-03-26T22:36:56.993Z</time>
      </trkpt>
      <trkpt lat="43.897795" lon="-1.365165">
        <ele>6.627759</ele>
        <time>2026-03-26T22:37:13.312Z</time>
      </trkpt>
      <trkpt lat="43.896053" lon="-1.365867">
        <ele>6.186853</ele>
        <time>2026-03-26T22:37:39.978Z</time>
      </trkpt>
      <trkpt lat="43.894035" lon="-1.366626">
        <ele>6.024578</ele>
        <time>2026-03-26T22:38:09.791Z</time>
      </trkpt>
      <trkpt lat="43.891525" lon="-1.367468">
        <ele>6.559004</ele>
        <time>2026-03-26T22:38:51.516Z</time>
      </trkpt>
      <trkpt lat="43.889912" lon="-1.368096">
        <ele>5.966203</ele>
        <time>2026-03-26T22:39:15.257Z</time>
      </trkpt>
      <trkpt lat="43.889616" lon="-1.368154">
        <ele>5.699402</ele>
        <time>2026-03-26T22:39:18.814Z</time>
      </trkpt>
      <trkpt lat="43.889474" lon="-1.368123">
        <ele>5.571108</ele>
        <time>2026-03-26T22:39:20.479Z</time>
      </trkpt>
      <trkpt lat="43.888718" lon="-1.367616">
        <ele>5.003149</ele>
        <time>2026-03-26T22:39:30.087Z</time>
      </trkpt>
      <trkpt lat="43.888587" lon="-1.367536">
        <ele>4.993505</ele>
        <time>2026-03-26T22:39:31.804Z</time>
      </trkpt>
      <trkpt lat="43.888463" lon="-1.367474">
        <ele>4.984623</ele>
        <time>2026-03-26T22:39:33.424Z</time>
      </trkpt>
      <trkpt lat="43.888269" lon="-1.367452">
        <ele>4.971507</ele>
        <time>2026-03-26T22:39:35.965Z</time>
      </trkpt>
      <trkpt lat="43.888100" lon="-1.367502">
        <ele>4.959862</ele>
        <time>2026-03-26T22:39:38.420Z</time>
      </trkpt>
      <trkpt lat="43.887752" lon="-1.367719">
        <ele>4.934153</ele>
        <time>2026-03-26T22:39:44.593Z</time>
      </trkpt>
      <trkpt lat="43.887444" lon="-1.367928">
        <ele>4.911050</ele>
        <time>2026-03-26T22:39:50.863Z</time>
      </trkpt>
      <trkpt lat="43.887340" lon="-1.367993">
        <ele>4.903363</ele>
        <time>2026-03-26T22:39:53.078Z</time>
      </trkpt>
      <trkpt lat="43.887161" lon="-1.368059">
        <ele>4.984886</ele>
        <time>2026-03-26T22:39:56.725Z</time>
      </trkpt>
      <trkpt lat="43.886730" lon="-1.368020">
        <ele>5.420862</ele>
        <time>2026-03-26T22:40:05.360Z</time>
      </trkpt>
      <trkpt lat="43.886073" lon="-1.367850">
        <ele>6.095473</ele>
        <time>2026-03-26T22:40:18.300Z</time>
      </trkpt>
      <trkpt lat="43.885727" lon="-1.367768">
        <ele>6.449785</ele>
        <time>2026-03-26T22:40:24.687Z</time>
      </trkpt>
      <trkpt lat="43.884670" lon="-1.367514">
        <ele>7.468712</ele>
        <time>2026-03-26T22:40:44.171Z</time>
      </trkpt>
      <trkpt lat="43.882996" lon="-1.367164">
        <ele>8.889512</ele>
        <time>2026-03-26T22:41:15.894Z</time>
      </trkpt>
      <trkpt lat="43.882536" lon="-1.367083">
        <ele>9.219490</ele>
        <time>2026-03-26T22:41:24.223Z</time>
      </trkpt>
      <trkpt lat="43.879086" lon="-1.366469">
        <ele>10.429511</ele>
        <time>2026-03-26T22:42:21.445Z</time>
      </trkpt>
      <trkpt lat="43.875345" lon="-1.365830">
        <ele>8.957239</ele>
        <time>2026-03-26T22:43:10.197Z</time>
      </trkpt>
      <trkpt lat="43.875154" lon="-1.365778">
        <ele>8.906042</ele>
        <time>2026-03-26T22:43:13.202Z</time>
      </trkpt>
      <trkpt lat="43.874995" lon="-1.365697">
        <ele>8.861489</ele>
        <time>2026-03-26T22:43:15.923Z</time>
      </trkpt>
      <trkpt lat="43.874734" lon="-1.365465">
        <ele>8.888138</ele>
        <time>2026-03-26T22:43:21.219Z</time>
      </trkpt>
      <trkpt lat="43.872579" lon="-1.363581">
        <ele>10.410105</ele>
        <time>2026-03-26T22:44:08.625Z</time>
      </trkpt>
      <trkpt lat="43.871605" lon="-1.362731">
        <ele>10.725729</ele>
        <time>2026-03-26T22:44:23.330Z</time>
      </trkpt>
      <trkpt lat="43.870870" lon="-1.362087">
        <ele>11.563525</ele>
        <time>2026-03-26T22:44:36.084Z</time>
      </trkpt>
      <trkpt lat="43.870643" lon="-1.361888">
        <ele>11.822312</ele>
        <time>2026-03-26T22:44:41.833Z</time>
      </trkpt>
      <trkpt lat="43.870362" lon="-1.361718">
        <ele>12.117749</ele>
        <time>2026-03-26T22:44:49.433Z</time>
      </trkpt>
      <trkpt lat="43.870140" lon="-1.361584">
        <ele>12.530706</ele>
        <time>2026-03-26T22:44:56.084Z</time>
      </trkpt>
      <trkpt lat="43.869740" lon="-1.361217">
        <ele>13.977536</ele>
        <time>2026-03-26T22:45:10.497Z</time>
      </trkpt>
      <trkpt lat="43.869201" lon="-1.360603">
        <ele>16.081679</ele>
        <time>2026-03-26T22:45:31.103Z</time>
      </trkpt>
      <trkpt lat="43.869045" lon="-1.360447">
        <ele>16.661857</ele>
        <time>2026-03-26T22:45:36.173Z</time>
      </trkpt>
      <trkpt lat="43.868916" lon="-1.360376">
        <ele>17.080547</ele>
        <time>2026-03-26T22:45:39.612Z</time>
      </trkpt>
      <trkpt lat="43.868775" lon="-1.360361">
        <ele>17.507172</ele>
        <time>2026-03-26T22:45:42.925Z</time>
      </trkpt>
      <trkpt lat="43.868377" lon="-1.360467">
        <ele>18.112102</ele>
        <time>2026-03-26T22:45:51.708Z</time>
      </trkpt>
      <trkpt lat="43.867769" lon="-1.360820">
        <ele>18.915891</ele>
        <time>2026-03-26T22:46:05.010Z</time>
      </trkpt>
      <trkpt lat="43.867476" lon="-1.360930">
        <ele>19.286062</ele>
        <time>2026-03-26T22:46:11.070Z</time>
      </trkpt>
      <trkpt lat="43.867351" lon="-1.360926">
        <ele>19.438540</ele>
        <time>2026-03-26T22:46:13.457Z</time>
      </trkpt>
      <trkpt lat="43.867033" lon="-1.360809">
        <ele>19.839752</ele>
        <time>2026-03-26T22:46:19.048Z</time>
      </trkpt>
      <trkpt lat="43.866773" lon="-1.360638">
        <ele>19.501392</ele>
        <time>2026-03-26T22:46:23.422Z</time>
      </trkpt>
      <trkpt lat="43.866424" lon="-1.360376">
        <ele>18.888891</ele>
        <time>2026-03-26T22:46:28.688Z</time>
      </trkpt>
      <trkpt lat="43.866164" lon="-1.360181">
        <ele>18.432684</ele>
        <time>2026-03-26T22:46:32.152Z</time>
      </trkpt>
      <trkpt lat="43.865553" lon="-1.359724">
        <ele>17.361258</ele>
        <time>2026-03-26T22:46:39.401Z</time>
      </trkpt>
      <trkpt lat="43.865229" lon="-1.359424">
        <ele>16.622782</ele>
        <time>2026-03-26T22:46:43.311Z</time>
      </trkpt>
      <trkpt lat="43.864860" lon="-1.358833">
        <ele>15.412051</ele>
        <time>2026-03-26T22:46:49.116Z</time>
      </trkpt>
      <trkpt lat="43.864508" lon="-1.358002">
        <ele>13.919467</ele>
        <time>2026-03-26T22:46:56.825Z</time>
      </trkpt>
      <trkpt lat="43.864213" lon="-1.357473">
        <ele>13.186677</ele>
        <time>2026-03-26T22:47:02.687Z</time>
      </trkpt>
      <trkpt lat="43.864080" lon="-1.357313">
        <ele>13.123960</ele>
        <time>2026-03-26T22:47:04.960Z</time>
      </trkpt>
      <trkpt lat="43.863929" lon="-1.357204">
        <ele>13.063321</ele>
        <time>2026-03-26T22:47:07.260Z</time>
      </trkpt>
      <trkpt lat="43.863677" lon="-1.357103">
        <ele>12.969879</ele>
        <time>2026-03-26T22:47:10.968Z</time>
      </trkpt>
      <trkpt lat="43.863440" lon="-1.357072">
        <ele>12.885079</ele>
        <time>2026-03-26T22:47:14.556Z</time>
      </trkpt>
      <trkpt lat="43.862358" lon="-1.356932">
        <ele>12.565255</ele>
        <time>2026-03-26T22:47:30.243Z</time>
      </trkpt>
      <trkpt lat="43.862085" lon="-1.356934">
        <ele>12.528480</ele>
        <time>2026-03-26T22:47:34.024Z</time>
      </trkpt>
      <trkpt lat="43.861509" lon="-1.357034">
        <ele>12.450283</ele>
        <time>2026-03-26T22:47:42.128Z</time>
      </trkpt>
      <trkpt lat="43.861095" lon="-1.357145">
        <ele>12.393482</ele>
        <time>2026-03-26T22:47:48.099Z</time>
      </trkpt>
      <trkpt lat="43.859155" lon="-1.357875">
        <ele>12.570843</ele>
        <time>2026-03-26T22:48:18.698Z</time>
      </trkpt>
      <trkpt lat="43.858227" lon="-1.358298">
        <ele>13.148311</ele>
        <time>2026-03-26T22:48:34.986Z</time>
      </trkpt>
      <trkpt lat="43.858020" lon="-1.358366">
        <ele>13.274927</ele>
        <time>2026-03-26T22:48:38.834Z</time>
      </trkpt>
      <trkpt lat="43.857265" lon="-1.358254">
        <ele>13.652118</ele>
        <time>2026-03-26T22:48:52.822Z</time>
      </trkpt>
      <trkpt lat="43.856756" lon="-1.358178">
        <ele>13.687330</ele>
        <time>2026-03-26T22:49:02.069Z</time>
      </trkpt>
      <trkpt lat="43.856570" lon="-1.358206">
        <ele>13.700199</ele>
        <time>2026-03-26T22:49:05.250Z</time>
      </trkpt>
      <trkpt lat="43.855896" lon="-1.358493">
        <ele>13.748694</ele>
        <time>2026-03-26T22:49:15.607Z</time>
      </trkpt>
      <trkpt lat="43.855061" lon="-1.358602">
        <ele>13.180806</ele>
        <time>2026-03-26T22:49:25.340Z</time>
      </trkpt>
      <trkpt lat="43.854832" lon="-1.358692">
        <ele>12.943144</ele>
        <time>2026-03-26T22:49:28.039Z</time>
      </trkpt>
      <trkpt lat="43.854338" lon="-1.359001">
        <ele>12.402028</ele>
        <time>2026-03-26T22:49:34.395Z</time>
      </trkpt>
      <trkpt lat="43.854007" lon="-1.359124">
        <ele>12.059863</ele>
        <time>2026-03-26T22:49:38.707Z</time>
      </trkpt>
      <trkpt lat="43.853637" lon="-1.359152">
        <ele>12.237396</ele>
        <time>2026-03-26T22:49:43.872Z</time>
      </trkpt>
      <trkpt lat="43.853380" lon="-1.359112">
        <ele>12.483676</ele>
        <time>2026-03-26T22:49:48.665Z</time>
      </trkpt>
      <trkpt lat="43.853012" lon="-1.359044">
        <ele>12.837224</ele>
        <time>2026-03-26T22:49:56.355Z</time>
      </trkpt>
      <trkpt lat="43.852834" lon="-1.359035">
        <ele>13.006848</ele>
        <time>2026-03-26T22:50:00.066Z</time>
      </trkpt>
      <trkpt lat="43.852602" lon="-1.359080">
        <ele>13.229935</ele>
        <time>2026-03-26T22:50:04.920Z</time>
      </trkpt>
      <trkpt lat="43.852387" lon="-1.359187">
        <ele>13.447468</ele>
        <time>2026-03-26T22:50:09.801Z</time>
      </trkpt>
      <trkpt lat="43.852311" lon="-1.359228">
        <ele>13.525128</ele>
        <time>2026-03-26T22:50:11.503Z</time>
      </trkpt>
      <trkpt lat="43.851745" lon="-1.359522">
        <ele>14.093787</ele>
        <time>2026-03-26T22:50:23.731Z</time>
      </trkpt>
      <trkpt lat="43.851645" lon="-1.359602">
        <ele>14.201908</ele>
        <time>2026-03-26T22:50:25.977Z</time>
      </trkpt>
      <trkpt lat="43.851546" lon="-1.359706">
        <ele>14.318225</ele>
        <time>2026-03-26T22:50:28.342Z</time>
      </trkpt>
      <trkpt lat="43.851556" lon="-1.359783">
        <ele>14.371065</ele>
        <time>2026-03-26T22:50:29.352Z</time>
      </trkpt>
      <trkpt lat="43.851538" lon="-1.359857">
        <ele>14.423808</ele>
        <time>2026-03-26T22:50:30.376Z</time>
      </trkpt>
      <trkpt lat="43.851503" lon="-1.359904">
        <ele>14.469437</ele>
        <time>2026-03-26T22:50:31.270Z</time>
      </trkpt>
      <trkpt lat="43.851441" lon="-1.359926">
        <ele>14.529373</ele>
        <time>2026-03-26T22:50:32.355Z</time>
      </trkpt>
      <trkpt lat="43.851350" lon="-1.359854">
        <ele>14.627494</ele>
        <time>2026-03-26T22:50:34.213Z</time>
      </trkpt>
      <trkpt lat="43.851052" lon="-1.360155">
        <ele>14.972769</ele>
        <time>2026-03-26T22:50:40.753Z</time>
      </trkpt>
      <trkpt lat="43.850896" lon="-1.360321">
        <ele>15.156926</ele>
        <time>2026-03-26T22:50:44.389Z</time>
      </trkpt>
      <trkpt lat="43.850517" lon="-1.360737">
        <ele>15.405051</ele>
        <time>2026-03-26T22:50:52.972Z</time>
      </trkpt>
      <trkpt lat="43.849832" lon="-1.360720">
        <ele>15.504645</ele>
        <time>2026-03-26T22:51:03.592Z</time>
      </trkpt>
      <trkpt lat="43.849446" lon="-1.360573">
        <ele>15.562835</ele>
        <time>2026-03-26T22:51:09.641Z</time>
      </trkpt>
      <trkpt lat="43.849388" lon="-1.360494">
        <ele>15.574654</ele>
        <time>2026-03-26T22:51:10.786Z</time>
      </trkpt>
      <trkpt lat="43.849114" lon="-1.359763">
        <ele>15.621050</ele>
        <time>2026-03-26T22:51:18.977Z</time>
      </trkpt>
      <trkpt lat="43.849076" lon="-1.359657">
        <ele>15.618001</ele>
        <time>2026-03-26T22:51:20.074Z</time>
      </trkpt>
      <trkpt lat="43.849064" lon="-1.359626">
        <ele>15.617095</ele>
        <time>2026-03-26T22:51:20.399Z</time>
      </trkpt>
      <trkpt lat="43.849001" lon="-1.359419">
        <ele>15.611309</ele>
        <time>2026-03-26T22:51:22.529Z</time>
      </trkpt>
      <trkpt lat="43.848960" lon="-1.359290">
        <ele>15.607678</ele>
        <time>2026-03-26T22:51:23.913Z</time>
      </trkpt>
      <trkpt lat="43.848825" lon="-1.358904">
        <ele>15.596630</ele>
        <time>2026-03-26T22:51:28.371Z</time>
      </trkpt>
      <trkpt lat="43.848818" lon="-1.358877">
        <ele>15.595891</ele>
        <time>2026-03-26T22:51:28.671Z</time>
      </trkpt>
      <trkpt lat="43.848762" lon="-1.358658">
        <ele>15.589907</ele>
        <time>2026-03-26T22:51:31.170Z</time>
      </trkpt>
      <trkpt lat="43.848757" lon="-1.358637">
        <ele>15.589338</ele>
        <time>2026-03-26T22:51:31.410Z</time>
      </trkpt>
      <trkpt lat="43.848674" lon="-1.358269">
        <ele>15.579408</ele>
        <time>2026-03-26T22:51:35.711Z</time>
      </trkpt>
      <trkpt lat="43.848661" lon="-1.358124">
        <ele>15.575644</ele>
        <time>2026-03-26T22:51:37.396Z</time>
      </trkpt>
      <trkpt lat="43.848592" lon="-1.358120">
        <ele>15.573178</ele>
        <time>2026-03-26T22:51:38.483Z</time>
      </trkpt>
      <trkpt lat="43.848171" lon="-1.358059">
        <ele>15.644432</ele>
        <time>2026-03-26T22:51:45.272Z</time>
      </trkpt>
      <trkpt lat="43.847973" lon="-1.358053">
        <ele>15.729364</ele>
        <time>2026-03-26T22:51:48.424Z</time>
      </trkpt>
      <trkpt lat="43.847879" lon="-1.358099">
        <ele>15.772113</ele>
        <time>2026-03-26T22:51:50.069Z</time>
      </trkpt>
      <trkpt lat="43.847789" lon="-1.358006">
        <ele>15.820248</ele>
        <time>2026-03-26T22:51:51.978Z</time>
      </trkpt>
      <trkpt lat="43.847451" lon="-1.357912">
        <ele>15.968085</ele>
        <time>2026-03-26T22:51:58.080Z</time>
      </trkpt>
      <trkpt lat="43.847175" lon="-1.357742">
        <ele>16.097599</ele>
        <time>2026-03-26T22:52:03.238Z</time>
      </trkpt>
      <trkpt lat="43.846488" lon="-1.357241">
        <ele>16.406295</ele>
        <time>2026-03-26T22:52:15.759Z</time>
      </trkpt>
      <trkpt lat="43.845038" lon="-1.356189">
        <ele>16.927374</ele>
        <time>2026-03-26T22:52:41.795Z</time>
      </trkpt>
      <trkpt lat="43.844644" lon="-1.355903">
        <ele>17.061576</ele>
        <time>2026-03-26T22:52:49.390Z</time>
      </trkpt>
      <trkpt lat="43.844029" lon="-1.355456">
        <ele>17.271112</ele>
        <time>2026-03-26T22:53:01.057Z</time>
      </trkpt>
      <trkpt lat="43.843876" lon="-1.355313">
        <ele>17.326791</ele>
        <time>2026-03-26T22:53:04.031Z</time>
      </trkpt>
      <trkpt lat="43.843695" lon="-1.355345">
        <ele>17.381852</ele>
        <time>2026-03-26T22:53:06.904Z</time>
      </trkpt>
      <trkpt lat="43.842969" lon="-1.355830">
        <ele>17.313090</ele>
        <time>2026-03-26T22:53:18.569Z</time>
      </trkpt>
      <trkpt lat="43.841863" lon="-1.356448">
        <ele>17.021913</ele>
        <time>2026-03-26T22:53:34.552Z</time>
      </trkpt>
      <trkpt lat="43.839351" lon="-1.357943">
        <ele>16.657647</ele>
        <time>2026-03-26T22:54:15.338Z</time>
      </trkpt>
      <trkpt lat="43.837315" lon="-1.359126">
        <ele>15.670004</ele>
        <time>2026-03-26T22:54:43.480Z</time>
      </trkpt>
      <trkpt lat="43.836693" lon="-1.359401">
        <ele>15.435035</ele>
        <time>2026-03-26T22:54:52.747Z</time>
      </trkpt>
      <trkpt lat="43.835973" lon="-1.359543">
        <ele>15.518997</ele>
        <time>2026-03-26T22:55:04.366Z</time>
      </trkpt>
      <trkpt lat="43.835050" lon="-1.359533">
        <ele>15.623947</ele>
        <time>2026-03-26T22:55:18.738Z</time>
      </trkpt>
      <trkpt lat="43.835003" lon="-1.359525">
        <ele>15.624315</ele>
        <time>2026-03-26T22:55:19.460Z</time>
      </trkpt>
      <trkpt lat="43.833495" lon="-1.359460">
        <ele>15.636020</ele>
        <time>2026-03-26T22:55:41.186Z</time>
      </trkpt>
      <trkpt lat="43.833122" lon="-1.359506">
        <ele>15.681793</ele>
        <time>2026-03-26T22:55:47.109Z</time>
      </trkpt>
      <trkpt lat="43.832851" lon="-1.359576">
        <ele>15.764380</ele>
        <time>2026-03-26T22:55:51.601Z</time>
      </trkpt>
      <trkpt lat="43.832513" lon="-1.359703">
        <ele>15.869296</ele>
        <time>2026-03-26T22:55:57.497Z</time>
      </trkpt>
      <trkpt lat="43.830454" lon="-1.360872">
        <ele>16.066795</ele>
        <time>2026-03-26T22:56:32.874Z</time>
      </trkpt>
      <trkpt lat="43.824691" lon="-1.364142">
        <ele>12.004256</ele>
        <time>2026-03-26T22:57:51.648Z</time>
      </trkpt>
      <trkpt lat="43.824151" lon="-1.364449">
        <ele>12.132865</ele>
        <time>2026-03-26T22:57:59.853Z</time>
      </trkpt>
      <trkpt lat="43.823940" lon="-1.364570">
        <ele>12.183180</ele>
        <time>2026-03-26T22:58:03.427Z</time>
      </trkpt>
      <trkpt lat="43.822342" lon="-1.365472">
        <ele>12.719682</ele>
        <time>2026-03-26T22:58:35.751Z</time>
      </trkpt>
      <trkpt lat="43.821481" lon="-1.365915">
        <ele>12.926864</ele>
        <time>2026-03-26T22:58:49.495Z</time>
      </trkpt>
      <trkpt lat="43.819445" lon="-1.367119">
        <ele>10.519518</ele>
        <time>2026-03-26T22:59:15.125Z</time>
      </trkpt>
      <trkpt lat="43.818926" lon="-1.367390">
        <ele>10.135433</ele>
        <time>2026-03-26T22:59:22.245Z</time>
      </trkpt>
      <trkpt lat="43.818444" lon="-1.367527">
        <ele>9.794686</ele>
        <time>2026-03-26T22:59:29.017Z</time>
      </trkpt>
      <trkpt lat="43.817013" lon="-1.367781">
        <ele>9.692385</ele>
        <time>2026-03-26T22:59:50.146Z</time>
      </trkpt>
      <trkpt lat="43.815081" lon="-1.368136">
        <ele>9.903775</ele>
        <time>2026-03-26T23:00:21.558Z</time>
      </trkpt>
      <trkpt lat="43.814866" lon="-1.368116">
        <ele>9.932076</ele>
        <time>2026-03-26T23:00:24.663Z</time>
      </trkpt>
      <trkpt lat="43.814732" lon="-1.368181">
        <ele>9.950723</ele>
        <time>2026-03-26T23:00:26.642Z</time>
      </trkpt>
      <trkpt lat="43.814306" lon="-1.368255">
        <ele>9.775833</ele>
        <time>2026-03-26T23:00:32.433Z</time>
      </trkpt>
      <trkpt lat="43.813746" lon="-1.368475">
        <ele>9.449569</ele>
        <time>2026-03-26T23:00:39.854Z</time>
      </trkpt>
      <trkpt lat="43.813096" lon="-1.368906">
        <ele>9.045668</ele>
        <time>2026-03-26T23:00:49.095Z</time>
      </trkpt>
      <trkpt lat="43.809704" lon="-1.372279">
        <ele>7.102924</ele>
        <time>2026-03-26T23:01:44.526Z</time>
      </trkpt>
      <trkpt lat="43.809583" lon="-1.372335">
        <ele>7.077328</ele>
        <time>2026-03-26T23:01:46.192Z</time>
      </trkpt>
      <trkpt lat="43.809539" lon="-1.372399">
        <ele>7.064530</ele>
        <time>2026-03-26T23:01:47.036Z</time>
      </trkpt>
      <trkpt lat="43.809533" lon="-1.372494">
        <ele>7.050722</ele>
        <time>2026-03-26T23:01:47.946Z</time>
      </trkpt>
      <trkpt lat="43.809518" lon="-1.372536">
        <ele>7.043937</ele>
        <time>2026-03-26T23:01:48.382Z</time>
      </trkpt>
      <trkpt lat="43.809371" lon="-1.372592">
        <ele>7.013348</ele>
        <time>2026-03-26T23:01:50.397Z</time>
      </trkpt>
      <trkpt lat="43.803803" lon="-1.378104">
        <ele>5.604299</ele>
        <time>2026-03-26T23:03:28.321Z</time>
      </trkpt>
      <trkpt lat="43.801334" lon="-1.380550">
        <ele>3.892795</ele>
        <time>2026-03-26T23:04:07.617Z</time>
      </trkpt>
      <trkpt lat="43.800719" lon="-1.381021">
        <ele>3.749148</ele>
        <time>2026-03-26T23:04:16.755Z</time>
      </trkpt>
      <trkpt lat="43.799069" lon="-1.381949">
        <ele>4.092794</ele>
        <time>2026-03-26T23:04:43.873Z</time>
      </trkpt>
      <trkpt lat="43.797702" lon="-1.382754">
        <ele>5.051031</ele>
        <time>2026-03-26T23:05:13.868Z</time>
      </trkpt>
      <trkpt lat="43.797599" lon="-1.382849">
        <ele>5.037761</ele>
        <time>2026-03-26T23:05:16.043Z</time>
      </trkpt>
      <trkpt lat="43.797440" lon="-1.382915">
        <ele>5.019960</ele>
        <time>2026-03-26T23:05:18.815Z</time>
      </trkpt>
      <trkpt lat="43.796909" lon="-1.383389">
        <ele>4.952217</ele>
        <time>2026-03-26T23:05:27.693Z</time>
      </trkpt>
      <trkpt lat="43.795781" lon="-1.384713">
        <ele>3.914414</ele>
        <time>2026-03-26T23:05:45.133Z</time>
      </trkpt>
      <trkpt lat="43.795727" lon="-1.384774">
        <ele>3.840453</ele>
        <time>2026-03-26T23:05:45.948Z</time>
      </trkpt>
      <trkpt lat="43.794755" lon="-1.385874">
        <ele>2.881232</ele>
        <time>2026-03-26T23:06:01.422Z</time>
      </trkpt>
      <trkpt lat="43.793502" lon="-1.387294">
        <ele>2.713031</ele>
        <time>2026-03-26T23:06:25.603Z</time>
      </trkpt>
      <trkpt lat="43.791364" lon="-1.389955">
        <ele>4.231303</ele>
        <time>2026-03-26T23:07:15.931Z</time>
      </trkpt>
      <trkpt lat="43.790842" lon="-1.390650">
        <ele>4.525940</ele>
        <time>2026-03-26T23:07:27.269Z</time>
      </trkpt>
      <trkpt lat="43.790489" lon="-1.391113">
        <ele>4.617819</ele>
        <time>2026-03-26T23:07:34.562Z</time>
      </trkpt>
      <trkpt lat="43.789608" lon="-1.392168">
        <ele>4.830056</ele>
        <time>2026-03-26T23:07:52.670Z</time>
      </trkpt>
      <trkpt lat="43.789276" lon="-1.392556">
        <ele>4.883816</ele>
        <time>2026-03-26T23:07:59.674Z</time>
      </trkpt>
      <trkpt lat="43.788213" lon="-1.393821">
        <ele>4.991073</ele>
        <time>2026-03-26T23:08:21.161Z</time>
      </trkpt>
      <trkpt lat="43.787909" lon="-1.394176">
        <ele>4.873413</ele>
        <time>2026-03-26T23:08:26.666Z</time>
      </trkpt>
      <trkpt lat="43.787348" lon="-1.394667">
        <ele>4.677043</ele>
        <time>2026-03-26T23:08:35.606Z</time>
      </trkpt>
      <trkpt lat="43.786881" lon="-1.394993">
        <ele>4.522294</ele>
        <time>2026-03-26T23:08:42.546Z</time>
      </trkpt>
      <trkpt lat="43.786433" lon="-1.395196">
        <ele>4.351785</ele>
        <time>2026-03-26T23:08:48.888Z</time>
      </trkpt>
      <trkpt lat="43.786114" lon="-1.395341">
        <ele>4.227310</ele>
        <time>2026-03-26T23:08:53.469Z</time>
      </trkpt>
      <trkpt lat="43.784797" lon="-1.395844">
        <ele>3.859901</ele>
        <time>2026-03-26T23:09:12.154Z</time>
      </trkpt>
      <trkpt lat="43.784048" lon="-1.396136">
        <ele>3.911946</ele>
        <time>2026-03-26T23:09:23.348Z</time>
      </trkpt>
      <trkpt lat="43.783634" lon="-1.396251">
        <ele>3.940188</ele>
        <time>2026-03-26T23:09:30.246Z</time>
      </trkpt>
      <trkpt lat="43.783433" lon="-1.396307">
        <ele>3.953901</ele>
        <time>2026-03-26T23:09:33.649Z</time>
      </trkpt>
      <trkpt lat="43.782703" lon="-1.396315">
        <ele>4.268257</ele>
        <time>2026-03-26T23:09:45.977Z</time>
      </trkpt>
      <trkpt lat="43.780455" lon="-1.396268">
        <ele>5.292538</ele>
        <time>2026-03-26T23:10:23.444Z</time>
      </trkpt>
      <trkpt lat="43.779963" lon="-1.396264">
        <ele>5.508053</ele>
        <time>2026-03-26T23:10:31.977Z</time>
      </trkpt>
      <trkpt lat="43.779374" lon="-1.396178">
        <ele>5.492363</ele>
        <time>2026-03-26T23:10:41.503Z</time>
      </trkpt>
      <trkpt lat="43.778816" lon="-1.395963">
        <ele>5.337293</ele>
        <time>2026-03-26T23:10:49.753Z</time>
      </trkpt>
      <trkpt lat="43.774461" lon="-1.393563">
        <ele>2.868015</ele>
        <time>2026-03-26T23:11:49.595Z</time>
      </trkpt>
      <trkpt lat="43.774196" lon="-1.394515">
        <ele>3.229915</ele>
        <time>2026-03-26T23:12:02.513Z</time>
      </trkpt>
      <trkpt lat="43.774108" lon="-1.394618">
        <ele>3.286514</ele>
        <time>2026-03-26T23:12:04.693Z</time>
      </trkpt>
      <trkpt lat="43.774126" lon="-1.394731">
        <ele>3.327559</ele>
        <time>2026-03-26T23:12:06.273Z</time>
      </trkpt>
      <trkpt lat="43.774107" lon="-1.394813">
        <ele>3.358106</ele>
        <time>2026-03-26T23:12:07.493Z</time>
      </trkpt>
      <trkpt lat="43.774027" lon="-1.394846">
        <ele>3.399111</ele>
        <time>2026-03-26T23:12:09.123Z</time>
      </trkpt>
      <trkpt lat="43.773902" lon="-1.394992">
        <ele>3.479437</ele>
        <time>2026-03-26T23:12:12.357Z</time>
      </trkpt>
      <trkpt lat="43.773596" lon="-1.394712">
        <ele>3.622472</ele>
        <time>2026-03-26T23:12:19.340Z</time>
      </trkpt>
      <trkpt lat="43.773407" lon="-1.394627">
        <ele>3.618984</ele>
        <time>2026-03-26T23:12:22.816Z</time>
      </trkpt>
      <trkpt lat="43.773056" lon="-1.394378">
        <ele>3.612062</ele>
        <time>2026-03-26T23:12:29.080Z</time>
      </trkpt>
      <trkpt lat="43.772883" lon="-1.394297">
        <ele>3.608857</ele>
        <time>2026-03-26T23:12:31.763Z</time>
      </trkpt>
      <trkpt lat="43.772740" lon="-1.394267">
        <ele>3.606318</ele>
        <time>2026-03-26T23:12:33.797Z</time>
      </trkpt>
      <trkpt lat="43.772438" lon="-1.394081">
        <ele>3.600516</ele>
        <time>2026-03-26T23:12:38.304Z</time>
      </trkpt>
      <trkpt lat="43.772317" lon="-1.393973">
        <ele>3.597990</ele>
        <time>2026-03-26T23:12:40.218Z</time>
      </trkpt>
      <trkpt lat="43.771994" lon="-1.393823">
        <ele>3.591198</ele>
        <time>2026-03-26T23:12:44.688Z</time>
      </trkpt>
      <trkpt lat="43.771731" lon="-1.393614">
        <ele>3.560812</ele>
        <time>2026-03-26T23:12:48.594Z</time>
      </trkpt>
      <trkpt lat="43.771217" lon="-1.393330">
        <ele>3.505356</ele>
        <time>2026-03-26T23:12:55.870Z</time>
      </trkpt>
      <trkpt lat="43.771028" lon="-1.393258">
        <ele>3.485712</ele>
        <time>2026-03-26T23:12:58.687Z</time>
      </trkpt>
      <trkpt lat="43.770499" lon="-1.393001">
        <ele>3.429534</ele>
        <time>2026-03-26T23:13:07.556Z</time>
      </trkpt>
      <trkpt lat="43.770403" lon="-1.392894">
        <ele>3.417185</ele>
        <time>2026-03-26T23:13:09.641Z</time>
      </trkpt>
      <trkpt lat="43.770308" lon="-1.392833">
        <ele>3.429276</ele>
        <time>2026-03-26T23:13:11.453Z</time>
      </trkpt>
      <trkpt lat="43.770214" lon="-1.392855">
        <ele>3.460825</ele>
        <time>2026-03-26T23:13:13.091Z</time>
      </trkpt>
      <trkpt lat="43.769292" lon="-1.393347">
        <ele>3.787819</ele>
        <time>2026-03-26T23:13:30.344Z</time>
      </trkpt>
      <trkpt lat="43.768856" lon="-1.393529">
        <ele>3.938521</ele>
        <time>2026-03-26T23:13:37.607Z</time>
      </trkpt>
      <trkpt lat="43.768284" lon="-1.393611">
        <ele>3.755525</ele>
        <time>2026-03-26T23:13:45.458Z</time>
      </trkpt>
      <trkpt lat="43.767914" lon="-1.393598">
        <ele>3.502141</ele>
        <time>2026-03-26T23:13:50.090Z</time>
      </trkpt>
      <trkpt lat="43.767508" lon="-1.393518">
        <ele>3.221394</ele>
        <time>2026-03-26T23:13:55.040Z</time>
      </trkpt>
      <trkpt lat="43.766695" lon="-1.393191">
        <ele>2.805739</ele>
        <time>2026-03-26T23:14:05.454Z</time>
      </trkpt>
      <trkpt lat="43.766038" lon="-1.392886">
        <ele>2.911617</ele>
        <time>2026-03-26T23:14:15.126Z</time>
      </trkpt>
      <trkpt lat="43.765862" lon="-1.392803">
        <ele>2.940025</ele>
        <time>2026-03-26T23:14:18.091Z</time>
      </trkpt>
      <trkpt lat="43.765822" lon="-1.392779">
        <ele>2.946686</ele>
        <time>2026-03-26T23:14:18.807Z</time>
      </trkpt>
      <trkpt lat="43.765676" lon="-1.392704">
        <ele>2.970480</ele>
        <time>2026-03-26T23:14:21.445Z</time>
      </trkpt>
      <trkpt lat="43.765665" lon="-1.392698">
        <ele>2.972286</ele>
        <time>2026-03-26T23:14:21.638Z</time>
      </trkpt>
      <trkpt lat="43.765558" lon="-1.392632">
        <ele>2.990184</ele>
        <time>2026-03-26T23:14:23.707Z</time>
      </trkpt>
      <trkpt lat="43.763994" lon="-1.391822">
        <ele>4.672627</ele>
        <time>2026-03-26T23:14:56.930Z</time>
      </trkpt>
      <trkpt lat="43.763373" lon="-1.391534">
        <ele>5.412032</ele>
        <time>2026-03-26T23:15:10.612Z</time>
      </trkpt>
      <trkpt lat="43.762867" lon="-1.391259">
        <ele>5.710622</ele>
        <time>2026-03-26T23:15:21.079Z</time>
      </trkpt>
      <trkpt lat="43.762841" lon="-1.391205">
        <ele>5.736369</ele>
        <time>2026-03-26T23:15:21.915Z</time>
      </trkpt>
      <trkpt lat="43.762777" lon="-1.391141">
        <ele>5.779734</ele>
        <time>2026-03-26T23:15:23.341Z</time>
      </trkpt>
      <trkpt lat="43.762694" lon="-1.391073">
        <ele>5.832709</ele>
        <time>2026-03-26T23:15:25.036Z</time>
      </trkpt>
      <trkpt lat="43.762613" lon="-1.391124">
        <ele>5.881586</ele>
        <time>2026-03-26T23:15:26.589Z</time>
      </trkpt>
      <trkpt lat="43.760963" lon="-1.392503">
        <ele>6.046014</ele>
        <time>2026-03-26T23:15:54.012Z</time>
      </trkpt>
      <trkpt lat="43.758092" lon="-1.394845">
        <ele>4.944216</ele>
        <time>2026-03-26T23:16:39.443Z</time>
      </trkpt>
      <trkpt lat="43.756826" lon="-1.395880">
        <ele>4.505367</ele>
        <time>2026-03-26T23:16:59.026Z</time>
      </trkpt>
      <trkpt lat="43.754645" lon="-1.397634">
        <ele>4.429248</ele>
        <time>2026-03-26T23:17:37.066Z</time>
      </trkpt>
      <trkpt lat="43.750771" lon="-1.400749">
        <ele>4.993493</ele>
        <time>2026-03-26T23:18:45.348Z</time>
      </trkpt>
      <trkpt lat="43.749893" lon="-1.401486">
        <ele>5.349448</ele>
        <time>2026-03-26T23:19:01.967Z</time>
      </trkpt>
      <trkpt lat="43.749141" lon="-1.402063">
        <ele>5.541517</ele>
        <time>2026-03-26T23:19:16.811Z</time>
      </trkpt>
      <trkpt lat="43.748420" lon="-1.402652">
        <ele>5.618439</ele>
        <time>2026-03-26T23:19:30.299Z</time>
      </trkpt>
      <trkpt lat="43.744544" lon="-1.405788">
        <ele>3.677040</ele>
        <time>2026-03-26T23:20:29.176Z</time>
      </trkpt>
      <trkpt lat="43.741014" lon="-1.408686">
        <ele>3.485665</ele>
        <time>2026-03-26T23:21:29.124Z</time>
      </trkpt>
      <trkpt lat="43.740600" lon="-1.408997">
        <ele>3.565076</ele>
        <time>2026-03-26T23:21:36.574Z</time>
      </trkpt>
      <trkpt lat="43.737774" lon="-1.411304">
        <ele>4.769541</ele>
        <time>2026-03-26T23:22:31.481Z</time>
      </trkpt>
      <trkpt lat="43.737234" lon="-1.411690">
        <ele>4.927024</ele>
        <time>2026-03-26T23:22:40.619Z</time>
      </trkpt>
      <trkpt lat="43.736571" lon="-1.412238">
        <ele>5.255913</ele>
        <time>2026-03-26T23:22:51.725Z</time>
      </trkpt>
      <trkpt lat="43.736402" lon="-1.412291">
        <ele>5.338659</ele>
        <time>2026-03-26T23:22:54.464Z</time>
      </trkpt>
      <trkpt lat="43.736170" lon="-1.412260">
        <ele>5.449959</ele>
        <time>2026-03-26T23:22:58.386Z</time>
      </trkpt>
      <trkpt lat="43.735976" lon="-1.412168">
        <ele>5.547885</ele>
        <time>2026-03-26T23:23:01.974Z</time>
      </trkpt>
      <trkpt lat="43.735714" lon="-1.411995">
        <ele>5.686504</ele>
        <time>2026-03-26T23:23:07.252Z</time>
      </trkpt>
      <trkpt lat="43.735368" lon="-1.411747">
        <ele>5.904120</ele>
        <time>2026-03-26T23:23:14.602Z</time>
      </trkpt>
      <trkpt lat="43.734906" lon="-1.411508">
        <ele>6.328438</ele>
        <time>2026-03-26T23:23:24.171Z</time>
      </trkpt>
      <trkpt lat="43.734431" lon="-1.411415">
        <ele>6.741151</ele>
        <time>2026-03-26T23:23:33.662Z</time>
      </trkpt>
      <trkpt lat="43.733706" lon="-1.411769">
        <ele>7.386592</ele>
        <time>2026-03-26T23:23:47.122Z</time>
      </trkpt>
      <trkpt lat="43.731666" lon="-1.412754">
        <ele>7.823825</ele>
        <time>2026-03-26T23:24:20.761Z</time>
      </trkpt>
      <trkpt lat="43.731047" lon="-1.413034">
        <ele>7.857821</ele>
        <time>2026-03-26T23:24:29.911Z</time>
      </trkpt>
      <trkpt lat="43.730900" lon="-1.413053">
        <ele>7.865528</ele>
        <time>2026-03-26T23:24:32.038Z</time>
      </trkpt>
      <trkpt lat="43.730731" lon="-1.413023">
        <ele>7.874423</ele>
        <time>2026-03-26T23:24:34.583Z</time>
      </trkpt>
      <trkpt lat="43.730498" lon="-1.412915">
        <ele>7.887251</ele>
        <time>2026-03-26T23:24:38.384Z</time>
      </trkpt>
      <trkpt lat="43.730195" lon="-1.412620">
        <ele>7.976019</ele>
        <time>2026-03-26T23:24:44.104Z</time>
      </trkpt>
      <trkpt lat="43.729644" lon="-1.412163">
        <ele>8.265459</ele>
        <time>2026-03-26T23:24:54.377Z</time>
      </trkpt>
      <trkpt lat="43.729185" lon="-1.411903">
        <ele>8.488927</ele>
        <time>2026-03-26T23:25:03.198Z</time>
      </trkpt>
      <trkpt lat="43.728599" lon="-1.411640">
        <ele>8.722039</ele>
        <time>2026-03-26T23:25:14.112Z</time>
      </trkpt>
      <trkpt lat="43.727715" lon="-1.411569">
        <ele>8.818236</ele>
        <time>2026-03-26T23:25:28.088Z</time>
      </trkpt>
      <trkpt lat="43.727479" lon="-1.411583">
        <ele>8.843898</ele>
        <time>2026-03-26T23:25:31.467Z</time>
      </trkpt>
      <trkpt lat="43.726746" lon="-1.411766">
        <ele>8.844176</ele>
        <time>2026-03-26T23:25:41.849Z</time>
      </trkpt>
      <trkpt lat="43.726637" lon="-1.411488">
        <ele>8.775887</ele>
        <time>2026-03-26T23:25:44.912Z</time>
      </trkpt>
      <trkpt lat="43.726473" lon="-1.410947">
        <ele>8.649217</ele>
        <time>2026-03-26T23:25:50.511Z</time>
      </trkpt>
      <trkpt lat="43.726390" lon="-1.410313">
        <ele>8.510100</ele>
        <time>2026-03-26T23:25:56.672Z</time>
      </trkpt>
      <trkpt lat="43.726319" lon="-1.409235">
        <ele>8.596263</ele>
        <time>2026-03-26T23:26:08.145Z</time>
      </trkpt>
      <trkpt lat="43.726254" lon="-1.408998">
        <ele>8.737079</ele>
        <time>2026-03-26T23:26:11.098Z</time>
      </trkpt>
      <trkpt lat="43.726160" lon="-1.408849">
        <ele>8.846952</ele>
        <time>2026-03-26T23:26:13.517Z</time>
      </trkpt>
      <trkpt lat="43.726107" lon="-1.408790">
        <ele>8.899239</ele>
        <time>2026-03-26T23:26:14.700Z</time>
      </trkpt>
      <trkpt lat="43.725466" lon="-1.408276">
        <ele>9.468725</ele>
        <time>2026-03-26T23:26:28.936Z</time>
      </trkpt>
      <trkpt lat="43.724911" lon="-1.407667">
        <ele>9.885058</ele>
        <time>2026-03-26T23:26:43.520Z</time>
      </trkpt>
      <trkpt lat="43.724249" lon="-1.406858">
        <ele>10.235268</ele>
        <time>2026-03-26T23:26:58.040Z</time>
      </trkpt>
      <trkpt lat="43.723971" lon="-1.406563">
        <ele>10.374183</ele>
        <time>2026-03-26T23:27:02.733Z</time>
      </trkpt>
      <trkpt lat="43.723416" lon="-1.406219">
        <ele>10.975004</ele>
        <time>2026-03-26T23:27:11.054Z</time>
      </trkpt>
      <trkpt lat="43.723150" lon="-1.406032">
        <ele>11.370357</ele>
        <time>2026-03-26T23:27:15.812Z</time>
      </trkpt>
      <trkpt lat="43.722791" lon="-1.405685">
        <ele>11.950629</ele>
        <time>2026-03-26T23:27:24.267Z</time>
      </trkpt>
      <trkpt lat="43.721865" lon="-1.404715">
        <ele>13.794488</ele>
        <time>2026-03-26T23:27:55.052Z</time>
      </trkpt>
      <trkpt lat="43.721683" lon="-1.404451">
        <ele>14.309156</ele>
        <time>2026-03-26T23:28:02.072Z</time>
      </trkpt>
      <trkpt lat="43.721331" lon="-1.403829">
        <ele>15.423569</ele>
        <time>2026-03-26T23:28:15.145Z</time>
      </trkpt>
      <trkpt lat="43.721241" lon="-1.403561">
        <ele>15.840442</ele>
        <time>2026-03-26T23:28:19.296Z</time>
      </trkpt>
      <trkpt lat="43.721205" lon="-1.403295">
        <ele>16.222197</ele>
        <time>2026-03-26T23:28:22.782Z</time>
      </trkpt>
      <trkpt lat="43.721095" lon="-1.401950">
        <ele>16.637149</ele>
        <time>2026-03-26T23:28:37.404Z</time>
      </trkpt>
      <trkpt lat="43.720843" lon="-1.400443">
        <ele>17.078618</ele>
        <time>2026-03-26T23:28:55.057Z</time>
      </trkpt>
      <trkpt lat="43.720652" lon="-1.399673">
        <ele>17.506578</ele>
        <time>2026-03-26T23:29:06.092Z</time>
      </trkpt>
      <trkpt lat="43.720479" lon="-1.399084">
        <ele>17.840806</ele>
        <time>2026-03-26T23:29:14.955Z</time>
      </trkpt>
      <trkpt lat="43.720387" lon="-1.398847">
        <ele>17.982230</ele>
        <time>2026-03-26T23:29:18.764Z</time>
      </trkpt>
      <trkpt lat="43.720280" lon="-1.398650">
        <ele>18.111777</ele>
        <time>2026-03-26T23:29:22.205Z</time>
      </trkpt>
      <trkpt lat="43.719480" lon="-1.397844">
        <ele>17.279247</ele>
        <time>2026-03-26T23:29:37.035Z</time>
      </trkpt>
      <trkpt lat="43.719270" lon="-1.397558">
        <ele>16.949292</ele>
        <time>2026-03-26T23:29:40.331Z</time>
      </trkpt>
      <trkpt lat="43.718957" lon="-1.396925">
        <ele>16.328582</ele>
        <time>2026-03-26T23:29:46.187Z</time>
      </trkpt>
      <trkpt lat="43.718908" lon="-1.396823">
        <ele>16.229462</ele>
        <time>2026-03-26T23:29:47.110Z</time>
      </trkpt>
      <trkpt lat="43.718569" lon="-1.396272">
        <ele>15.531609</ele>
        <time>2026-03-26T23:29:52.569Z</time>
      </trkpt>
      <trkpt lat="43.718417" lon="-1.396111">
        <ele>15.274477</ele>
        <time>2026-03-26T23:29:54.635Z</time>
      </trkpt>
      <trkpt lat="43.718007" lon="-1.395846">
        <ele>14.666621</ele>
        <time>2026-03-26T23:29:59.936Z</time>
      </trkpt>
      <trkpt lat="43.717649" lon="-1.395692">
        <ele>14.163036</ele>
        <time>2026-03-26T23:30:04.943Z</time>
      </trkpt>
      <trkpt lat="43.716991" lon="-1.395587">
        <ele>13.748706</ele>
        <time>2026-03-26T23:30:15.236Z</time>
      </trkpt>
      <trkpt lat="43.716716" lon="-1.395590">
        <ele>13.719034</ele>
        <time>2026-03-26T23:30:19.556Z</time>
      </trkpt>
      <trkpt lat="43.715310" lon="-1.395614">
        <ele>13.638170</ele>
        <time>2026-03-26T23:30:39.240Z</time>
      </trkpt>
      <trkpt lat="43.714991" lon="-1.395490">
        <ele>13.690250</ele>
        <time>2026-03-26T23:30:44.249Z</time>
      </trkpt>
      <trkpt lat="43.714861" lon="-1.395371">
        <ele>13.714750</ele>
        <time>2026-03-26T23:30:46.750Z</time>
      </trkpt>
      <trkpt lat="43.714731" lon="-1.395178">
        <ele>13.744720</ele>
        <time>2026-03-26T23:30:49.943Z</time>
      </trkpt>
      <trkpt lat="43.714605" lon="-1.394900">
        <ele>13.781997</ele>
        <time>2026-03-26T23:30:54.069Z</time>
      </trkpt>
      <trkpt lat="43.714188" lon="-1.393611">
        <ele>13.802309</ele>
        <time>2026-03-26T23:31:10.074Z</time>
      </trkpt>
      <trkpt lat="43.713933" lon="-1.392890">
        <ele>13.692506</ele>
        <time>2026-03-26T23:31:17.982Z</time>
      </trkpt>
      <trkpt lat="43.713846" lon="-1.392708">
        <ele>13.662657</ele>
        <time>2026-03-26T23:31:20.063Z</time>
      </trkpt>
      <trkpt lat="43.713594" lon="-1.392363">
        <ele>13.595561</ele>
        <time>2026-03-26T23:31:24.606Z</time>
      </trkpt>
      <trkpt lat="43.713479" lon="-1.392137">
        <ele>13.557753</ele>
        <time>2026-03-26T23:31:27.146Z</time>
      </trkpt>
      <trkpt lat="43.713142" lon="-1.390877">
        <ele>14.014983</ele>
        <time>2026-03-26T23:31:41.912Z</time>
      </trkpt>
      <trkpt lat="43.713025" lon="-1.390566">
        <ele>14.153931</ele>
        <time>2026-03-26T23:31:46.540Z</time>
      </trkpt>
      <trkpt lat="43.712898" lon="-1.390346">
        <ele>14.265513</ele>
        <time>2026-03-26T23:31:50.325Z</time>
      </trkpt>
      <trkpt lat="43.711756" lon="-1.388880">
        <ele>16.121716</ele>
        <time>2026-03-26T23:32:21.482Z</time>
      </trkpt>
      <trkpt lat="43.711260" lon="-1.388196">
        <ele>17.152300</ele>
        <time>2026-03-26T23:32:36.699Z</time>
      </trkpt>
      <trkpt lat="43.710367" lon="-1.386585">
        <ele>20.081015</ele>
        <time>2026-03-26T23:33:09.540Z</time>
      </trkpt>
      <trkpt lat="43.710214" lon="-1.386137">
        <ele>20.812981</ele>
        <time>2026-03-26T23:33:17.880Z</time>
      </trkpt>
      <trkpt lat="43.709980" lon="-1.385159">
        <ele>23.128591</ele>
        <time>2026-03-26T23:33:37.228Z</time>
      </trkpt>
      <trkpt lat="43.709514" lon="-1.383345">
        <ele>27.073145</ele>
        <time>2026-03-26T23:34:17.940Z</time>
      </trkpt>
      <trkpt lat="43.709347" lon="-1.382794">
        <ele>27.945965</ele>
        <time>2026-03-26T23:34:29.085Z</time>
      </trkpt>
      <trkpt lat="43.708382" lon="-1.380994">
        <ele>29.826917</ele>
        <time>2026-03-26T23:35:00.202Z</time>
      </trkpt>
      <trkpt lat="43.707980" lon="-1.380261">
        <ele>29.639219</ele>
        <time>2026-03-26T23:35:09.791Z</time>
      </trkpt>
      <trkpt lat="43.707120" lon="-1.378693">
        <ele>26.521181</ele>
        <time>2026-03-26T23:35:25.436Z</time>
      </trkpt>
      <trkpt lat="43.705528" lon="-1.376352">
        <ele>18.140083</ele>
        <time>2026-03-26T23:35:47.524Z</time>
      </trkpt>
      <trkpt lat="43.705417" lon="-1.376245">
        <ele>17.627341</ele>
        <time>2026-03-26T23:35:48.988Z</time>
      </trkpt>
      <trkpt lat="43.705174" lon="-1.376047">
        <ele>16.712733</ele>
        <time>2026-03-26T23:35:52.258Z</time>
      </trkpt>
      <trkpt lat="43.704931" lon="-1.375892">
        <ele>16.799892</ele>
        <time>2026-03-26T23:35:55.737Z</time>
      </trkpt>
      <trkpt lat="43.704640" lon="-1.375707">
        <ele>16.904205</ele>
        <time>2026-03-26T23:36:00.845Z</time>
      </trkpt>
      <trkpt lat="43.704271" lon="-1.375568">
        <ele>17.028771</ele>
        <time>2026-03-26T23:36:08.311Z</time>
      </trkpt>
      <trkpt lat="43.702121" lon="-1.374862">
        <ele>18.656646</ele>
        <time>2026-03-26T23:36:50.163Z</time>
      </trkpt>
      <trkpt lat="43.701951" lon="-1.374807">
        <ele>18.825255</ele>
        <time>2026-03-26T23:36:53.372Z</time>
      </trkpt>
      <trkpt lat="43.701695" lon="-1.374724">
        <ele>19.037131</ele>
        <time>2026-03-26T23:36:58.199Z</time>
      </trkpt>
      <trkpt lat="43.700975" lon="-1.374491">
        <ele>19.212737</ele>
        <time>2026-03-26T23:37:11.427Z</time>
      </trkpt>
      <trkpt lat="43.700348" lon="-1.374231">
        <ele>19.368187</ele>
        <time>2026-03-26T23:37:21.324Z</time>
      </trkpt>
      <trkpt lat="43.700265" lon="-1.374197">
        <ele>19.388744</ele>
        <time>2026-03-26T23:37:22.489Z</time>
      </trkpt>
      <trkpt lat="43.700397" lon="-1.373690">
        <ele>19.362837</ele>
        <time>2026-03-26T23:37:27.552Z</time>
      </trkpt>
      <trkpt lat="43.700428" lon="-1.372568">
        <ele>18.811933</ele>
        <time>2026-03-26T23:37:37.712Z</time>
      </trkpt>
      <trkpt lat="43.700432" lon="-1.372461">
        <ele>18.759364</ele>
        <time>2026-03-26T23:37:38.662Z</time>
      </trkpt>
      <trkpt lat="43.700553" lon="-1.371904">
        <ele>18.474005</ele>
        <time>2026-03-26T23:37:43.946Z</time>
      </trkpt>
      <trkpt lat="43.700742" lon="-1.370339">
        <ele>18.048305</ele>
        <time>2026-03-26T23:37:59.191Z</time>
      </trkpt>
      <trkpt lat="43.700739" lon="-1.369960">
        <ele>17.985110</ele>
        <time>2026-03-26T23:38:02.874Z</time>
      </trkpt>
      <trkpt lat="43.700585" lon="-1.368875">
        <ele>17.839059</ele>
        <time>2026-03-26T23:38:14.823Z</time>
      </trkpt>
      <trkpt lat="43.700556" lon="-1.368675">
        <ele>17.895892</ele>
        <time>2026-03-26T23:38:17.234Z</time>
      </trkpt>
      <trkpt lat="43.700550" lon="-1.368388">
        <ele>17.975888</ele>
        <time>2026-03-26T23:38:20.730Z</time>
      </trkpt>
      <trkpt lat="43.700570" lon="-1.368214">
        <ele>18.024975</ele>
        <time>2026-03-26T23:38:22.928Z</time>
      </trkpt>
      <trkpt lat="43.700587" lon="-1.368063">
        <ele>18.067553</ele>
        <time>2026-03-26T23:38:24.860Z</time>
      </trkpt>
      <trkpt lat="43.700662" lon="-1.367423">
        <ele>18.248194</ele>
        <time>2026-03-26T23:38:33.275Z</time>
      </trkpt>
      <trkpt lat="43.700942" lon="-1.365077">
        <ele>17.774600</ele>
        <time>2026-03-26T23:38:59.922Z</time>
      </trkpt>
      <trkpt lat="43.701061" lon="-1.363622">
        <ele>16.591361</ele>
        <time>2026-03-26T23:39:11.770Z</time>
      </trkpt>
      <trkpt lat="43.701228" lon="-1.362732">
        <ele>15.163876</ele>
        <time>2026-03-26T23:39:18.681Z</time>
      </trkpt>
      <trkpt lat="43.701256" lon="-1.362354">
        <ele>14.573968</ele>
        <time>2026-03-26T23:39:21.587Z</time>
      </trkpt>
      <trkpt lat="43.701221" lon="-1.361998">
        <ele>14.016200</ele>
        <time>2026-03-26T23:39:24.407Z</time>
      </trkpt>
      <trkpt lat="43.701165" lon="-1.361667">
        <ele>13.488447</ele>
        <time>2026-03-26T23:39:27.150Z</time>
      </trkpt>
      <trkpt lat="43.701158" lon="-1.361625">
        <ele>13.421533</ele>
        <time>2026-03-26T23:39:27.494Z</time>
      </trkpt>
      <trkpt lat="43.701179" lon="-1.361439">
        <ele>13.386742</ele>
        <time>2026-03-26T23:39:29.046Z</time>
      </trkpt>
      <trkpt lat="43.701541" lon="-1.360674">
        <ele>13.412827</ele>
        <time>2026-03-26T23:39:37.062Z</time>
      </trkpt>
      <trkpt lat="43.701634" lon="-1.360343">
        <ele>13.422959</ele>
        <time>2026-03-26T23:39:40.749Z</time>
      </trkpt>
      <trkpt lat="43.701625" lon="-1.360056">
        <ele>13.431155</ele>
        <time>2026-03-26T23:39:44.327Z</time>
      </trkpt>
      <trkpt lat="43.701572" lon="-1.359831">
        <ele>13.437906</ele>
        <time>2026-03-26T23:39:47.597Z</time>
      </trkpt>
      <trkpt lat="43.701370" lon="-1.358979">
        <ele>14.070000</ele>
        <time>2026-03-26T23:40:01.653Z</time>
      </trkpt>
      <trkpt lat="43.700919" lon="-1.358142">
        <ele>15.834855</ele>
        <time>2026-03-26T23:40:21.539Z</time>
      </trkpt>
      <trkpt lat="43.700736" lon="-1.357613">
        <ele>16.826317</ele>
        <time>2026-03-26T23:40:32.966Z</time>
      </trkpt>
      <trkpt lat="43.700427" lon="-1.356715">
        <ele>17.821661</ele>
        <time>2026-03-26T23:40:49.687Z</time>
      </trkpt>
      <trkpt lat="43.699795" lon="-1.354845">
        <ele>18.428273</ele>
        <time>2026-03-26T23:41:11.638Z</time>
      </trkpt>
      <trkpt lat="43.699603" lon="-1.354190">
        <ele>18.101154</ele>
        <time>2026-03-26T23:41:18.114Z</time>
      </trkpt>
      <trkpt lat="43.699312" lon="-1.351714">
        <ele>16.908028</ele>
        <time>2026-03-26T23:41:41.217Z</time>
      </trkpt>
      <trkpt lat="43.699154" lon="-1.350794">
        <ele>16.432670</ele>
        <time>2026-03-26T23:41:49.675Z</time>
      </trkpt>
      <trkpt lat="43.699109" lon="-1.350589">
        <ele>16.324970</ele>
        <time>2026-03-26T23:41:51.641Z</time>
      </trkpt>
      <trkpt lat="43.698934" lon="-1.349820">
        <ele>16.135491</ele>
        <time>2026-03-26T23:41:59.283Z</time>
      </trkpt>
      <trkpt lat="43.699002" lon="-1.349418">
        <ele>16.241773</ele>
        <time>2026-03-26T23:42:03.469Z</time>
      </trkpt>
      <trkpt lat="43.699367" lon="-1.348004">
        <ele>16.628284</ele>
        <time>2026-03-26T23:42:21.952Z</time>
      </trkpt>
      <trkpt lat="43.699674" lon="-1.346296">
        <ele>17.690269</ele>
        <time>2026-03-26T23:42:46.728Z</time>
      </trkpt>
      <trkpt lat="43.699827" lon="-1.345822">
        <ele>18.038871</ele>
        <time>2026-03-26T23:42:53.623Z</time>
      </trkpt>
      <trkpt lat="43.700145" lon="-1.345015">
        <ele>18.591137</ele>
        <time>2026-03-26T23:43:05.211Z</time>
      </trkpt>
      <trkpt lat="43.700207" lon="-1.344760">
        <ele>18.730271</ele>
        <time>2026-03-26T23:43:08.532Z</time>
      </trkpt>
      <trkpt lat="43.700218" lon="-1.344489">
        <ele>18.870642</ele>
        <time>2026-03-26T23:43:11.894Z</time>
      </trkpt>
      <trkpt lat="43.700199" lon="-1.343963">
        <ele>19.143008</ele>
        <time>2026-03-26T23:43:18.501Z</time>
      </trkpt>
      <trkpt lat="43.700137" lon="-1.343440">
        <ele>19.417095</ele>
        <time>2026-03-26T23:43:25.391Z</time>
      </trkpt>
      <trkpt lat="43.699877" lon="-1.341866">
        <ele>20.057219</ele>
        <time>2026-03-26T23:43:46.233Z</time>
      </trkpt>
      <trkpt lat="43.699751" lon="-1.341338">
        <ele>20.250100</ele>
        <time>2026-03-26T23:43:52.815Z</time>
      </trkpt>
      <trkpt lat="43.699646" lon="-1.341040">
        <ele>20.365098</ele>
        <time>2026-03-26T23:43:56.634Z</time>
      </trkpt>
      <trkpt lat="43.699418" lon="-1.340592">
        <ele>20.544075</ele>
        <time>2026-03-26T23:44:02.780Z</time>
      </trkpt>
      <trkpt lat="43.698582" lon="-1.339069">
        <ele>20.977214</ele>
        <time>2026-03-26T23:44:24.883Z</time>
      </trkpt>
      <trkpt lat="43.698011" lon="-1.337953">
        <ele>21.198469</ele>
        <time>2026-03-26T23:44:41.530Z</time>
      </trkpt>
      <trkpt lat="43.696850" lon="-1.336633">
        <ele>21.322178</ele>
        <time>2026-03-26T23:45:03.884Z</time>
      </trkpt>
      <trkpt lat="43.696802" lon="-1.336578">
        <ele>21.307806</ele>
        <time>2026-03-26T23:45:04.717Z</time>
      </trkpt>
      <trkpt lat="43.696340" lon="-1.335922">
        <ele>21.155134</ele>
        <time>2026-03-26T23:45:13.242Z</time>
      </trkpt>
      <trkpt lat="43.696132" lon="-1.335544">
        <ele>21.075941</ele>
        <time>2026-03-26T23:45:17.791Z</time>
      </trkpt>
      <trkpt lat="43.695851" lon="-1.334625">
        <ele>21.290103</ele>
        <time>2026-03-26T23:45:28.881Z</time>
      </trkpt>
      <trkpt lat="43.695178" lon="-1.333169">
        <ele>22.426379</ele>
        <time>2026-03-26T23:45:52.698Z</time>
      </trkpt>
      <trkpt lat="43.695087" lon="-1.333052">
        <ele>22.539370</ele>
        <time>2026-03-26T23:45:55.271Z</time>
      </trkpt>
      <trkpt lat="43.694829" lon="-1.332835">
        <ele>22.894930</ele>
        <time>2026-03-26T23:46:01.480Z</time>
      </trkpt>
      <trkpt lat="43.694645" lon="-1.332723">
        <ele>23.154950</ele>
        <time>2026-03-26T23:46:05.737Z</time>
      </trkpt>
      <trkpt lat="43.694328" lon="-1.332503">
        <ele>23.613691</ele>
        <time>2026-03-26T23:46:13.335Z</time>
      </trkpt>
      <trkpt lat="43.694000" lon="-1.332335">
        <ele>24.066094</ele>
        <time>2026-03-26T23:46:20.395Z</time>
      </trkpt>
      <trkpt lat="43.693524" lon="-1.332093">
        <ele>24.722045</ele>
        <time>2026-03-26T23:46:30.792Z</time>
      </trkpt>
      <trkpt lat="43.693205" lon="-1.331877">
        <ele>24.948685</ele>
        <time>2026-03-26T23:46:37.362Z</time>
      </trkpt>
      <trkpt lat="43.692781" lon="-1.331501">
        <ele>24.948685</ele>
        <time>2026-03-26T23:46:45.282Z</time>
      </trkpt>
      <trkpt lat="43.692727" lon="-1.331387">
        <ele>24.948685</ele>
        <time>2026-03-26T23:46:46.645Z</time>
      </trkpt>
      <trkpt lat="43.692690" lon="-1.331196">
        <ele>24.948685</ele>
        <time>2026-03-26T23:46:48.549Z</time>
      </trkpt>
      <trkpt lat="43.692675" lon="-1.330814">
        <ele>24.948685</ele>
        <time>2026-03-26T23:46:52.120Z</time>
      </trkpt>
      <trkpt lat="43.692638" lon="-1.330610">
        <ele>24.948685</ele>
        <time>2026-03-26T23:46:54.061Z</time>
      </trkpt>
      <trkpt lat="43.692314" lon="-1.330770">
        <ele>24.948685</ele>
        <time>2026-03-26T23:46:58.508Z</time>
      </trkpt>
      <trkpt lat="43.692261" lon="-1.330792">
        <ele>24.948685</ele>
        <time>2026-03-26T23:46:59.249Z</time>
      </trkpt>
    </trkseg>
  </trk>
</gpx>